PWSweather.com
Personal Weather Stations
Station Observations
OZIERI
Punta Idda, OzieriIT

Punta IddaOzieriIT

Lat: 40.584142, Lon: 9.007657999999992

Elevation: 1483

Station Type: Lacrosse ws2350

Latest ConditionsUpdated 7:03:44 PM GMT+01:01 Tuesday, Jun 18, 2019
Currently Today's Max Today's Min Today's Average
Temperature 77.5°F25.3°C 86.2°F30.1°C 59.7°F15.4°C 73.2°F22.9°C
Dew Point 52.0°F11.1°C 58.6°F14.8°C 49.3°F9.6°C 54.0°F12.2°C
Winds 2.2 mph NNW3.5 kmh NNW 7.2 mph -11.6 kmh - - 3.1 mph 5.0 kmh
Wind Gusts 3.4 mph5.5 kmh 15.7 mph25.3 kmh - -
Humidity 41% 71% 36% 53%
Pressure 29.99 in1015.6 mb 30.02 in1016.6 mb 29.97 in1014.9 mb -
Hour Temp Dew Point Humidity Winds Wind Gusts Pressure Precip Precip Rate Daily Precip Total
07:03 PM 77.5°F25.3°C 52.0°F11.1°C 41% 2.2 mph NNW3.5 kmh NNW 3.4 mph5.5 kmh 29.99 in1015.6 mb 0.00 in0.0 mm 0.00 in0.0 mm 0.00 in0.0 mm
07:01 PM 77.7°F25.4°C 52.2°F11.2°C 41% 2.2 mph NNW3.5 kmh NNW 3.1 mph5.0 kmh 29.99 in1015.6 mb 0.00 in0.0 mm 0.00 in0.0 mm 0.00 in0.0 mm
06:59 PM 77.7°F25.4°C 52.2°F11.2°C 41% 2.2 mph WSW3.5 kmh WSW 3.4 mph5.5 kmh 29.99 in1015.6 mb 0.00 in0.0 mm 0.00 in0.0 mm 0.00 in0.0 mm
06:57 PM 77.9°F25.5°C 52.3°F11.3°C 41% 2.2 mph NW3.5 kmh NW 4.5 mph7.2 kmh 29.99 in1015.6 mb 0.00 in0.0 mm 0.00 in0.0 mm 0.00 in0.0 mm
06:54 PM 78.1°F25.6°C 51.8°F11.0°C 40% 2.0 mph 3.2 kmh 3.1 mph5.0 kmh 29.99 in1015.6 mb 0.00 in0.0 mm 0.00 in0.0 mm 0.00 in0.0 mm
06:52 PM 78.3°F25.7°C 52.0°F11.1°C 40% 2.0 mph WSW3.2 kmh WSW 5.8 mph9.3 kmh 29.99 in1015.6 mb 0.00 in0.0 mm 0.00 in0.0 mm 0.00 in0.0 mm
06:50 PM 78.3°F25.7°C 52.0°F11.1°C 40% 1.3 mph NNW2.1 kmh NNW 2.0 mph3.2 kmh 29.99 in1015.6 mb 0.00 in0.0 mm 0.00 in0.0 mm 0.00 in0.0 mm
06:47 PM 78.3°F25.7°C 52.0°F11.1°C 40% 2.0 mph 3.2 kmh 3.8 mph6.1 kmh 29.99 in1015.6 mb 0.00 in0.0 mm 0.00 in0.0 mm 0.00 in0.0 mm
06:45 PM 78.3°F25.7°C 52.0°F11.1°C 40% 2.0 mph WNW3.2 kmh WNW 2.7 mph4.3 kmh 29.98 in1015.2 mb 0.00 in0.0 mm 0.00 in0.0 mm 0.00 in0.0 mm
06:43 PM 78.1°F25.6°C 51.8°F11.0°C 40% 2.5 mph NNW4.0 kmh NNW 5.1 mph8.2 kmh 29.99 in1015.6 mb 0.00 in0.0 mm 0.00 in0.0 mm 0.00 in0.0 mm
06:41 PM 78.4°F25.8°C 52.2°F11.2°C 40% 2.5 mph NNW4.0 kmh NNW 5.4 mph8.7 kmh 29.99 in1015.6 mb 0.00 in0.0 mm 0.00 in0.0 mm 0.00 in0.0 mm
06:39 PM 78.3°F25.7°C 52.0°F11.1°C 40% 2.7 mph NW4.3 kmh NW 4.7 mph7.6 kmh 29.98 in1015.2 mb 0.00 in0.0 mm 0.00 in0.0 mm 0.00 in0.0 mm
06:36 PM 78.3°F25.7°C 52.0°F11.1°C 40% 3.6 mph NW5.8 kmh NW 6.9 mph11.1 kmh 29.99 in1015.6 mb 0.00 in0.0 mm 0.00 in0.0 mm 0.00 in0.0 mm
06:34 PM 78.3°F25.7°C 52.0°F11.1°C 40% 3.4 mph NW5.5 kmh NW 3.4 mph5.5 kmh 29.99 in1015.6 mb 0.00 in0.0 mm 0.00 in0.0 mm 0.00 in0.0 mm
06:32 PM 78.4°F25.8°C 52.2°F11.2°C 40% 4.3 mph NNW6.9 kmh NNW 6.3 mph10.1 kmh 29.99 in1015.6 mb 0.00 in0.0 mm 0.00 in0.0 mm 0.00 in0.0 mm
06:30 PM 78.4°F25.8°C 52.2°F11.2°C 40% 4.3 mph 6.9 kmh 7.8 mph12.6 kmh 29.99 in1015.6 mb 0.00 in0.0 mm 0.00 in0.0 mm 0.00 in0.0 mm
06:27 PM 78.6°F25.9°C 52.3°F11.3°C 40% 4.5 mph NNW7.2 kmh NNW 9.6 mph15.4 kmh 29.99 in1015.6 mb 0.00 in0.0 mm 0.00 in0.0 mm 0.00 in0.0 mm
06:25 PM 79.0°F26.1°C 52.0°F11.1°C 39% 4.0 mph NNW6.4 kmh NNW 7.6 mph12.2 kmh 29.99 in1015.6 mb 0.00 in0.0 mm 0.00 in0.0 mm 0.00 in0.0 mm
06:23 PM 79.2°F26.2°C 52.7°F11.5°C 40% 3.4 mph NNE5.5 kmh NNE 5.1 mph8.2 kmh 29.99 in1015.6 mb 0.00 in0.0 mm 0.00 in0.0 mm 0.00 in0.0 mm
06:20 PM 79.2°F26.2°C 52.7°F11.5°C 40% 2.7 mph W4.3 kmh W 5.4 mph8.7 kmh 29.99 in1015.6 mb 0.00 in0.0 mm 0.00 in0.0 mm 0.00 in0.0 mm
06:18 PM 79.3°F26.3°C 52.9°F11.6°C 40% 2.7 mph NNW4.3 kmh NNW 3.1 mph5.0 kmh 29.99 in1015.6 mb 0.00 in0.0 mm 0.00 in0.0 mm 0.00 in0.0 mm
06:16 PM 79.2°F26.2°C 52.7°F11.5°C 40% 3.1 mph NNW5.0 kmh NNW 4.9 mph7.9 kmh 29.99 in1015.6 mb 0.00 in0.0 mm 0.00 in0.0 mm 0.00 in0.0 mm
06:14 PM 79.3°F26.3°C 52.9°F11.6°C 40% 3.4 mph NW5.5 kmh NW 4.9 mph7.9 kmh 29.99 in1015.6 mb 0.00 in0.0 mm 0.00 in0.0 mm 0.00 in0.0 mm
06:12 PM 79.3°F26.3°C 52.9°F11.6°C 40% 3.6 mph 5.8 kmh 6.7 mph10.8 kmh 29.99 in1015.6 mb 0.00 in0.0 mm 0.00 in0.0 mm 0.00 in0.0 mm
06:09 PM 79.5°F26.4°C 53.1°F11.7°C 40% 3.1 mph 5.0 kmh 6.3 mph10.1 kmh 29.99 in1015.6 mb 0.00 in0.0 mm 0.00 in0.0 mm 0.00 in0.0 mm
06:07 PM 79.5°F26.4°C 53.1°F11.7°C 40% 2.9 mph WNW4.7 kmh WNW 4.5 mph7.2 kmh 29.98 in1015.2 mb 0.00 in0.0 mm 0.00 in0.0 mm 0.00 in0.0 mm
06:05 PM 79.5°F26.4°C 53.1°F11.7°C 40% 3.1 mph 5.0 kmh 4.9 mph7.9 kmh 29.98 in1015.2 mb 0.00 in0.0 mm 0.00 in0.0 mm 0.00 in0.0 mm
06:03 PM 79.5°F26.4°C 53.1°F11.7°C 40% 2.7 mph NNW4.3 kmh NNW 3.6 mph5.8 kmh 29.98 in1015.2 mb 0.00 in0.0 mm 0.00 in0.0 mm 0.00 in0.0 mm
06:00 PM 79.5°F26.4°C 53.1°F11.7°C 40% 3.6 mph NW5.8 kmh NW 4.3 mph6.9 kmh 29.98 in1015.2 mb 0.00 in0.0 mm 0.00 in0.0 mm 0.00 in0.0 mm
05:58 PM 79.5°F26.4°C 53.1°F11.7°C 40% 4.7 mph NNW7.6 kmh NNW 6.3 mph10.1 kmh 29.98 in1015.2 mb 0.00 in0.0 mm 0.00 in0.0 mm 0.00 in0.0 mm
05:56 PM 79.5°F26.4°C 53.1°F11.7°C 40% 5.4 mph SSE8.7 kmh SSE 10.5 mph16.9 kmh 29.99 in1015.6 mb 0.00 in0.0 mm 0.00 in0.0 mm 0.00 in0.0 mm
05:54 PM 79.9°F26.6°C 53.4°F11.9°C 40% 6.3 mph NNW10.1 kmh NNW 10.3 mph16.6 kmh 29.98 in1015.2 mb 0.00 in0.0 mm 0.00 in0.0 mm 0.00 in0.0 mm
05:52 PM 80.2°F26.8°C 53.1°F11.7°C 39% 5.6 mph NNW9.0 kmh NNW 13.0 mph20.9 kmh 29.99 in1015.6 mb 0.00 in0.0 mm 0.00 in0.0 mm 0.00 in0.0 mm
05:50 PM 80.4°F26.9°C 54.0°F12.2°C 40% 3.8 mph 6.1 kmh 6.0 mph9.7 kmh 29.98 in1015.2 mb 0.00 in0.0 mm 0.00 in0.0 mm 0.00 in0.0 mm
05:48 PM 80.4°F26.9°C 54.0°F12.2°C 40% 3.6 mph W5.8 kmh W 4.7 mph7.6 kmh 29.98 in1015.2 mb 0.00 in0.0 mm 0.00 in0.0 mm 0.00 in0.0 mm
05:46 PM 80.4°F26.9°C 54.0°F12.2°C 40% 3.8 mph NW6.1 kmh NW 4.0 mph6.4 kmh 29.98 in1015.2 mb 0.00 in0.0 mm 0.00 in0.0 mm 0.00 in0.0 mm
05:43 PM 80.4°F26.9°C 54.0°F12.2°C 40% 4.3 mph NW6.9 kmh NW 8.1 mph13.0 kmh 29.99 in1015.6 mb 0.00 in0.0 mm 0.00 in0.0 mm 0.00 in0.0 mm
05:41 PM 80.2°F26.8°C 54.3°F12.4°C 41% 4.9 mph NNW7.9 kmh NNW 9.4 mph15.1 kmh 29.99 in1015.6 mb 0.00 in0.0 mm 0.00 in0.0 mm 0.00 in0.0 mm
05:39 PM 80.4°F26.9°C 54.5°F12.5°C 41% 4.9 mph NW7.9 kmh NW 7.8 mph12.6 kmh 29.99 in1015.6 mb 0.00 in0.0 mm 0.00 in0.0 mm 0.00 in0.0 mm
05:37 PM 80.4°F26.9°C 54.5°F12.5°C 41% 5.6 mph NW9.0 kmh NW 7.6 mph12.2 kmh 29.98 in1015.2 mb 0.00 in0.0 mm 0.00 in0.0 mm 0.00 in0.0 mm
05:34 PM 81.0°F27.2°C 54.3°F12.4°C 40% 6.3 mph NNE10.1 kmh NNE 12.8 mph20.6 kmh 29.98 in1015.2 mb 0.00 in0.0 mm 0.00 in0.0 mm 0.00 in0.0 mm
05:32 PM 81.1°F27.3°C 54.5°F12.5°C 40% 4.7 mph NNW7.6 kmh NNW 7.8 mph12.6 kmh 29.98 in1015.2 mb 0.00 in0.0 mm 0.00 in0.0 mm 0.00 in0.0 mm
05:30 PM 81.3°F27.4°C 54.7°F12.6°C 40% 4.5 mph WNW7.2 kmh WNW 9.2 mph14.8 kmh 29.98 in1015.2 mb 0.00 in0.0 mm 0.00 in0.0 mm 0.00 in0.0 mm
05:28 PM 81.1°F27.3°C 55.2°F12.9°C 41% 4.9 mph NW7.9 kmh NW 8.7 mph14.0 kmh 29.98 in1015.2 mb 0.00 in0.0 mm 0.00 in0.0 mm 0.00 in0.0 mm
05:25 PM 81.1°F27.3°C 54.5°F12.5°C 40% 6.3 mph NW10.1 kmh NW 11.0 mph17.7 kmh 29.98 in1015.2 mb 0.00 in0.0 mm 0.00 in0.0 mm 0.00 in0.0 mm
05:23 PM 81.3°F27.4°C 55.4°F13.0°C 41% 5.1 mph NNW8.2 kmh NNW 8.9 mph14.3 kmh 29.98 in1015.2 mb 0.00 in0.0 mm 0.00 in0.0 mm 0.00 in0.0 mm
05:21 PM 81.5°F27.5°C 55.6°F13.1°C 41% 5.4 mph NNE8.7 kmh NNE 11.0 mph17.7 kmh 29.97 in1014.9 mb 0.00 in0.0 mm 0.00 in0.0 mm 0.00 in0.0 mm
05:19 PM 81.5°F27.5°C 55.6°F13.1°C 41% 5.4 mph 8.7 kmh 9.6 mph15.4 kmh 29.98 in1015.2 mb 0.00 in0.0 mm 0.00 in0.0 mm 0.00 in0.0 mm
05:17 PM 81.5°F27.5°C 55.6°F13.1°C 41% 5.8 mph 9.3 kmh 11.2 mph18.0 kmh 29.97 in1014.9 mb 0.00 in0.0 mm 0.00 in0.0 mm 0.00 in0.0 mm
05:14 PM 81.7°F27.6°C 55.8°F13.2°C 41% 5.1 mph NNE8.2 kmh NNE 10.1 mph16.3 kmh 29.97 in1014.9 mb 0.00 in0.0 mm 0.00 in0.0 mm 0.00 in0.0 mm
05:12 PM 82.0°F27.8°C 55.9°F13.3°C 41% 5.1 mph W8.2 kmh W 10.3 mph16.6 kmh 29.97 in1014.9 mb 0.00 in0.0 mm 0.00 in0.0 mm 0.00 in0.0 mm
05:10 PM 82.2°F27.9°C 56.1°F13.4°C 41% 5.8 mph WNW9.3 kmh WNW 7.6 mph12.2 kmh 29.97 in1014.9 mb 0.00 in0.0 mm 0.00 in0.0 mm 0.00 in0.0 mm
05:07 PM 82.2°F27.9°C 56.1°F13.4°C 41% 5.8 mph NNW9.3 kmh NNW 7.6 mph12.2 kmh 29.97 in1014.9 mb 0.00 in0.0 mm 0.00 in0.0 mm 0.00 in0.0 mm
05:05 PM 82.6°F28.1°C 56.5°F13.6°C 41% 6.7 mph WNW10.8 kmh WNW 10.3 mph16.6 kmh 29.97 in1014.9 mb 0.00 in0.0 mm 0.00 in0.0 mm 0.00 in0.0 mm
05:03 PM 82.6°F28.1°C 56.5°F13.6°C 41% 7.2 mph SSW11.6 kmh SSW 15.7 mph25.3 kmh 29.97 in1014.9 mb 0.00 in0.0 mm 0.00 in0.0 mm 0.00 in0.0 mm
05:01 PM 82.9°F28.3°C 56.8°F13.8°C 41% 6.0 mph WNW9.7 kmh WNW 10.5 mph16.9 kmh 29.97 in1014.9 mb 0.00 in0.0 mm 0.00 in0.0 mm 0.00 in0.0 mm
04:59 PM 82.9°F28.3°C 56.8°F13.8°C 41% 5.4 mph WSW8.7 kmh WSW 10.3 mph16.6 kmh 29.97 in1014.9 mb 0.00 in0.0 mm 0.00 in0.0 mm 0.00 in0.0 mm
04:56 PM 82.8°F28.2°C 57.4°F14.1°C 42% 5.8 mph NW9.3 kmh NW 9.4 mph15.1 kmh 29.97 in1014.9 mb 0.00 in0.0 mm 0.00 in0.0 mm 0.00 in0.0 mm
04:54 PM 82.9°F28.3°C 56.8°F13.8°C 41% 6.0 mph WSW9.7 kmh WSW 10.5 mph16.9 kmh 29.97 in1014.9 mb 0.00 in0.0 mm 0.00 in0.0 mm 0.00 in0.0 mm
04:52 PM 83.1°F28.4°C 57.0°F13.9°C 41% 5.8 mph NNE9.3 kmh NNE 12.1 mph19.5 kmh 29.97 in1014.9 mb 0.00 in0.0 mm 0.00 in0.0 mm 0.00 in0.0 mm
04:50 PM 83.1°F28.4°C 57.0°F13.9°C 41% 5.6 mph NNW9.0 kmh NNW 10.5 mph16.9 kmh 29.97 in1014.9 mb 0.00 in0.0 mm 0.00 in0.0 mm 0.00 in0.0 mm
04:47 PM 82.9°F28.3°C 57.6°F14.2°C 42% 5.6 mph SW9.0 kmh SW 10.5 mph16.9 kmh 29.97 in1014.9 mb 0.00 in0.0 mm 0.00 in0.0 mm 0.00 in0.0 mm
04:45 PM 82.9°F28.3°C 58.1°F14.5°C 43% 6.0 mph NNE9.7 kmh NNE 11.9 mph19.2 kmh 29.97 in1014.9 mb 0.00 in0.0 mm 0.00 in0.0 mm 0.00 in0.0 mm
04:43 PM 83.1°F28.4°C 57.6°F14.2°C 42% 6.3 mph 10.1 kmh 14.5 mph23.3 kmh 29.97 in1014.9 mb 0.00 in0.0 mm 0.00 in0.0 mm 0.00 in0.0 mm
04:41 PM 83.1°F28.4°C 58.3°F14.6°C 43% 4.7 mph NW7.6 kmh NW 10.5 mph16.9 kmh 29.97 in1014.9 mb 0.00 in0.0 mm 0.00 in0.0 mm 0.00 in0.0 mm
04:39 PM 83.1°F28.4°C 58.3°F14.6°C 43% 4.5 mph 7.2 kmh 3.8 mph6.1 kmh 29.97 in1014.9 mb 0.00 in0.0 mm 0.00 in0.0 mm 0.00 in0.0 mm
04:36 PM 83.1°F28.4°C 58.3°F14.6°C 43% 5.1 mph NNW8.2 kmh NNW 8.9 mph14.3 kmh 29.97 in1014.9 mb 0.00 in0.0 mm 0.00 in0.0 mm 0.00 in0.0 mm
04:34 PM 83.1°F28.4°C 58.3°F14.6°C 43% 4.9 mph S7.9 kmh S 6.9 mph11.1 kmh 29.97 in1014.9 mb 0.00 in0.0 mm 0.00 in0.0 mm 0.00 in0.0 mm
04:32 PM 83.3°F28.5°C 57.2°F14.0°C 41% 5.1 mph SE8.2 kmh SE 7.4 mph11.9 kmh 29.97 in1014.9 mb 0.00 in0.0 mm 0.00 in0.0 mm 0.00 in0.0 mm
04:30 PM 83.5°F28.6°C 57.9°F14.4°C 42% 5.6 mph NNE9.0 kmh NNE 11.6 mph18.7 kmh 29.97 in1014.9 mb 0.00 in0.0 mm 0.00 in0.0 mm 0.00 in0.0 mm
04:28 PM 83.5°F28.6°C 57.4°F14.1°C 41% 4.0 mph NNE6.4 kmh NNE 6.5 mph10.5 kmh 29.97 in1014.9 mb 0.00 in0.0 mm 0.00 in0.0 mm 0.00 in0.0 mm
04:25 PM 83.5°F28.6°C 57.9°F14.4°C 42% 4.9 mph NNW7.9 kmh NNW 8.3 mph13.4 kmh 29.97 in1014.9 mb 0.00 in0.0 mm 0.00 in0.0 mm 0.00 in0.0 mm
04:23 PM 83.1°F28.4°C 57.6°F14.2°C 42% 5.8 mph WNW9.3 kmh WNW 11.6 mph18.7 kmh 29.97 in1014.9 mb 0.00 in0.0 mm 0.00 in0.0 mm 0.00 in0.0 mm
04:21 PM 83.5°F28.6°C 58.6°F14.8°C 43% 5.1 mph NW8.2 kmh NW 6.3 mph10.1 kmh 29.97 in1014.9 mb 0.00 in0.0 mm 0.00 in0.0 mm 0.00 in0.0 mm
04:19 PM 83.5°F28.6°C 58.6°F14.8°C 43% 4.9 mph NNW7.9 kmh NNW 7.4 mph11.9 kmh 29.97 in1014.9 mb 0.00 in0.0 mm 0.00 in0.0 mm 0.00 in0.0 mm
04:17 PM 83.5°F28.6°C 58.6°F14.8°C 43% 4.9 mph NW7.9 kmh NW 7.2 mph11.6 kmh 29.97 in1014.9 mb 0.00 in0.0 mm 0.00 in0.0 mm 0.00 in0.0 mm
04:14 PM 83.3°F28.5°C 57.7°F14.3°C 42% 5.4 mph NW8.7 kmh NW 11.2 mph18.0 kmh 29.97 in1014.9 mb 0.00 in0.0 mm 0.00 in0.0 mm 0.00 in0.0 mm
04:12 PM 83.3°F28.5°C 57.2°F14.0°C 41% 4.5 mph WNW7.2 kmh WNW 9.8 mph15.8 kmh 29.97 in1014.9 mb 0.00 in0.0 mm 0.00 in0.0 mm 0.00 in0.0 mm
04:10 PM 83.3°F28.5°C 57.2°F14.0°C 41% 4.3 mph S6.9 kmh S 12.5 mph20.1 kmh 29.98 in1015.2 mb 0.00 in0.0 mm 0.00 in0.0 mm 0.00 in0.0 mm
04:08 PM 83.5°F28.6°C 57.4°F14.1°C 41% 4.5 mph NNW7.2 kmh NNW 10.3 mph16.6 kmh 29.98 in1015.2 mb 0.00 in0.0 mm 0.00 in0.0 mm 0.00 in0.0 mm
04:06 PM 83.8°F28.8°C 57.6°F14.2°C 41% 4.7 mph NNW7.6 kmh NNW 10.3 mph16.6 kmh 29.98 in1015.2 mb 0.00 in0.0 mm 0.00 in0.0 mm 0.00 in0.0 mm
04:04 PM 83.8°F28.8°C 58.3°F14.6°C 42% 4.5 mph WSW7.2 kmh WSW 6.5 mph10.5 kmh 29.98 in1015.2 mb 0.00 in0.0 mm 0.00 in0.0 mm 0.00 in0.0 mm
04:01 PM 83.8°F28.8°C 57.6°F14.2°C 41% 5.1 mph NNW8.2 kmh NNW 8.9 mph14.3 kmh 29.98 in1015.2 mb 0.00 in0.0 mm 0.00 in0.0 mm 0.00 in0.0 mm
03:59 PM 83.7°F28.7°C 57.4°F14.1°C 41% 4.9 mph W7.9 kmh W 8.9 mph14.3 kmh 29.98 in1015.2 mb 0.00 in0.0 mm 0.00 in0.0 mm 0.00 in0.0 mm
03:57 PM 83.5°F28.6°C 57.4°F14.1°C 41% 5.6 mph S9.0 kmh S 11.9 mph19.2 kmh 29.98 in1015.2 mb 0.00 in0.0 mm 0.00 in0.0 mm 0.00 in0.0 mm
03:55 PM 84.0°F28.9°C 58.5°F14.7°C 42% 5.8 mph WNW9.3 kmh WNW 8.5 mph13.7 kmh 29.98 in1015.2 mb 0.00 in0.0 mm 0.00 in0.0 mm 0.00 in0.0 mm
03:53 PM 84.0°F28.9°C 58.5°F14.7°C 42% 5.1 mph NNW8.2 kmh NNW 7.2 mph11.6 kmh 29.98 in1015.2 mb 0.00 in0.0 mm 0.00 in0.0 mm 0.00 in0.0 mm
03:51 PM 84.0°F28.9°C 58.5°F14.7°C 42% 6.3 mph 10.1 kmh 8.9 mph14.3 kmh 29.98 in1015.2 mb 0.00 in0.0 mm 0.00 in0.0 mm 0.00 in0.0 mm
03:49 PM 84.0°F28.9°C 57.0°F13.9°C 40% 6.0 mph ESE9.7 kmh ESE 12.8 mph20.6 kmh 29.98 in1015.2 mb 0.00 in0.0 mm 0.00 in0.0 mm 0.00 in0.0 mm
03:47 PM 84.4°F29.1°C 57.4°F14.1°C 40% 5.4 mph NNW8.7 kmh NNW 7.4 mph11.9 kmh 29.98 in1015.2 mb 0.00 in0.0 mm 0.00 in0.0 mm 0.00 in0.0 mm
03:45 PM 84.2°F29.0°C 57.2°F14.0°C 40% 5.6 mph NW9.0 kmh NW 6.9 mph11.1 kmh 29.98 in1015.2 mb 0.00 in0.0 mm 0.00 in0.0 mm 0.00 in0.0 mm
03:42 PM 84.4°F29.1°C 57.4°F14.1°C 40% 5.8 mph NW9.3 kmh NW 9.8 mph15.8 kmh 29.98 in1015.2 mb 0.00 in0.0 mm 0.00 in0.0 mm 0.00 in0.0 mm
03:40 PM 84.6°F29.2°C 57.6°F14.2°C 40% 5.4 mph NW8.7 kmh NW 8.3 mph13.4 kmh 29.98 in1015.2 mb 0.00 in0.0 mm 0.00 in0.0 mm 0.00 in0.0 mm
03:38 PM 84.4°F29.1°C 57.4°F14.1°C 40% 4.9 mph NNE7.9 kmh NNE 13.2 mph21.2 kmh 29.98 in1015.2 mb 0.00 in0.0 mm 0.00 in0.0 mm 0.00 in0.0 mm
03:36 PM 84.4°F29.1°C 57.4°F14.1°C 40% 4.5 mph 7.2 kmh 7.8 mph12.6 kmh 29.98 in1015.2 mb 0.00 in0.0 mm 0.00 in0.0 mm 0.00 in0.0 mm
03:33 PM 84.6°F29.2°C 56.8°F13.8°C 39% 5.1 mph NNW8.2 kmh NNW 9.2 mph14.8 kmh 29.98 in1015.2 mb 0.00 in0.0 mm 0.00 in0.0 mm 0.00 in0.0 mm
03:31 PM 84.7°F29.3°C 57.0°F13.9°C 39% 5.1 mph NW8.2 kmh NW 8.9 mph14.3 kmh 29.98 in1015.2 mb 0.00 in0.0 mm 0.00 in0.0 mm 0.00 in0.0 mm
03:29 PM 84.6°F29.2°C 57.6°F14.2°C 40% 5.1 mph NNW8.2 kmh NNW 7.2 mph11.6 kmh 29.98 in1015.2 mb 0.00 in0.0 mm 0.00 in0.0 mm 0.00 in0.0 mm
03:27 PM 84.2°F29.0°C 56.5°F13.6°C 39% 5.4 mph WNW8.7 kmh WNW 9.6 mph15.4 kmh 29.98 in1015.2 mb 0.00 in0.0 mm 0.00 in0.0 mm 0.00 in0.0 mm
03:24 PM 84.4°F29.1°C 56.7°F13.7°C 39% 6.3 mph 10.1 kmh 11.4 mph18.3 kmh 29.98 in1015.2 mb 0.00 in0.0 mm 0.00 in0.0 mm 0.00 in0.0 mm
03:22 PM 84.7°F29.3°C 57.0°F13.9°C 39% 6.3 mph 10.1 kmh 14.5 mph23.3 kmh 29.98 in1015.2 mb 0.00 in0.0 mm 0.00 in0.0 mm 0.00 in0.0 mm
03:20 PM 84.7°F29.3°C 57.0°F13.9°C 39% 4.0 mph SSW6.4 kmh SSW 5.4 mph8.7 kmh 29.98 in1015.2 mb 0.00 in0.0 mm 0.00 in0.0 mm 0.00 in0.0 mm
03:18 PM 84.9°F29.4°C 57.2°F14.0°C 39% 4.7 mph NNE7.6 kmh NNE 8.9 mph14.3 kmh 29.98 in1015.2 mb 0.00 in0.0 mm 0.00 in0.0 mm 0.00 in0.0 mm
03:16 PM 84.7°F29.3°C 57.0°F13.9°C 39% 3.6 mph WNW5.8 kmh WNW 3.8 mph6.1 kmh 29.98 in1015.2 mb 0.00 in0.0 mm 0.00 in0.0 mm 0.00 in0.0 mm
03:14 PM 84.7°F29.3°C 57.0°F13.9°C 39% 4.5 mph WSW7.2 kmh WSW 5.1 mph8.2 kmh 29.98 in1015.2 mb 0.00 in0.0 mm 0.00 in0.0 mm 0.00 in0.0 mm
03:11 PM 84.7°F29.3°C 57.0°F13.9°C 39% 5.8 mph NNE9.3 kmh NNE 8.7 mph14.0 kmh 29.98 in1015.2 mb 0.00 in0.0 mm 0.00 in0.0 mm 0.00 in0.0 mm
03:09 PM 84.9°F29.4°C 56.5°F13.6°C 38% 5.8 mph NNE9.3 kmh NNE 13.6 mph21.9 kmh 29.98 in1015.2 mb 0.00 in0.0 mm 0.00 in0.0 mm 0.00 in0.0 mm
03:07 PM 85.1°F29.5°C 56.7°F13.7°C 38% 4.7 mph 7.6 kmh 10.3 mph16.6 kmh 29.98 in1015.2 mb 0.00 in0.0 mm 0.00 in0.0 mm 0.00 in0.0 mm
03:05 PM 84.9°F29.4°C 56.5°F13.6°C 38% 4.0 mph 6.4 kmh 5.6 mph9.0 kmh 29.98 in1015.2 mb 0.00 in0.0 mm 0.00 in0.0 mm 0.00 in0.0 mm
03:03 PM 85.1°F29.5°C 56.7°F13.7°C 38% 4.7 mph NW7.6 kmh NW 9.4 mph15.1 kmh 29.98 in1015.2 mb 0.00 in0.0 mm 0.00 in0.0 mm 0.00 in0.0 mm
03:00 PM 84.9°F29.4°C 56.5°F13.6°C 38% 3.8 mph 6.1 kmh 9.8 mph15.8 kmh 29.98 in1015.2 mb 0.00 in0.0 mm 0.00 in0.0 mm 0.00 in0.0 mm
02:58 PM 84.9°F29.4°C 56.5°F13.6°C 38% 3.4 mph NNE5.5 kmh NNE 6.9 mph11.1 kmh 29.98 in1015.2 mb 0.00 in0.0 mm 0.00 in0.0 mm 0.00 in0.0 mm
02:56 PM 84.9°F29.4°C 55.8°F13.2°C 37% 2.9 mph NNE4.7 kmh NNE 5.8 mph9.3 kmh 29.98 in1015.2 mb 0.00 in0.0 mm 0.00 in0.0 mm 0.00 in0.0 mm
02:54 PM 84.7°F29.3°C 56.3°F13.5°C 38% 3.4 mph WNW5.5 kmh WNW 8.1 mph13.0 kmh 29.99 in1015.6 mb 0.00 in0.0 mm 0.00 in0.0 mm 0.00 in0.0 mm
02:52 PM 84.6°F29.2°C 56.1°F13.4°C 38% 4.5 mph NW7.2 kmh NW 6.5 mph10.5 kmh 29.98 in1015.2 mb 0.00 in0.0 mm 0.00 in0.0 mm 0.00 in0.0 mm
02:50 PM 84.4°F29.1°C 55.9°F13.3°C 38% 4.9 mph WNW7.9 kmh WNW 8.7 mph14.0 kmh 29.98 in1015.2 mb 0.00 in0.0 mm 0.00 in0.0 mm 0.00 in0.0 mm
02:48 PM 84.7°F29.3°C 56.3°F13.5°C 38% 4.7 mph NNE7.6 kmh NNE 8.9 mph14.3 kmh 29.99 in1015.6 mb 0.00 in0.0 mm 0.00 in0.0 mm 0.00 in0.0 mm
02:45 PM 84.6°F29.2°C 56.1°F13.4°C 38% 4.3 mph NNW6.9 kmh NNW 6.7 mph10.8 kmh 29.98 in1015.2 mb 0.00 in0.0 mm 0.00 in0.0 mm 0.00 in0.0 mm
02:43 PM 84.6°F29.2°C 56.1°F13.4°C 38% 5.1 mph NNW8.2 kmh NNW 7.6 mph12.2 kmh 29.99 in1015.6 mb 0.00 in0.0 mm 0.00 in0.0 mm 0.00 in0.0 mm
02:41 PM 84.7°F29.3°C 56.3°F13.5°C 38% 5.4 mph NNW8.7 kmh NNW 8.7 mph14.0 kmh 29.99 in1015.6 mb 0.00 in0.0 mm 0.00 in0.0 mm 0.00 in0.0 mm
02:39 PM 84.7°F29.3°C 56.3°F13.5°C 38% 5.8 mph NNW9.3 kmh NNW 8.7 mph14.0 kmh 29.99 in1015.6 mb 0.00 in0.0 mm 0.00 in0.0 mm 0.00 in0.0 mm
02:37 PM 84.7°F29.3°C 55.6°F13.1°C 37% 5.8 mph SSW9.3 kmh SSW 14.1 mph22.7 kmh 29.99 in1015.6 mb 0.00 in0.0 mm 0.00 in0.0 mm 0.00 in0.0 mm
02:34 PM 85.3°F29.6°C 56.1°F13.4°C 37% 5.8 mph NE9.3 kmh NE 12.8 mph20.6 kmh 29.99 in1015.6 mb 0.00 in0.0 mm 0.00 in0.0 mm 0.00 in0.0 mm
02:32 PM 85.5°F29.7°C 56.3°F13.5°C 37% 4.0 mph NW6.4 kmh NW 8.5 mph13.7 kmh 29.99 in1015.6 mb 0.00 in0.0 mm 0.00 in0.0 mm 0.00 in0.0 mm
02:30 PM 85.6°F29.8°C 56.3°F13.5°C 37% 2.9 mph W4.7 kmh W 5.6 mph9.0 kmh 29.98 in1015.2 mb 0.00 in0.0 mm 0.00 in0.0 mm 0.00 in0.0 mm
02:28 PM 85.8°F29.9°C 56.5°F13.6°C 37% 3.1 mph SW5.0 kmh SW 2.9 mph4.7 kmh 29.98 in1015.2 mb 0.00 in0.0 mm 0.00 in0.0 mm 0.00 in0.0 mm
02:25 PM 85.8°F29.9°C 56.5°F13.6°C 37% 4.7 mph NE7.6 kmh NE 10.3 mph16.6 kmh 29.98 in1015.2 mb 0.00 in0.0 mm 0.00 in0.0 mm 0.00 in0.0 mm
02:23 PM 85.8°F29.9°C 56.5°F13.6°C 37% 3.8 mph NNW6.1 kmh NNW 6.7 mph10.8 kmh 29.98 in1015.2 mb 0.00 in0.0 mm 0.00 in0.0 mm 0.00 in0.0 mm
02:21 PM 86.2°F30.1°C 56.1°F13.4°C 36% 3.1 mph SE5.0 kmh SE 4.7 mph7.6 kmh 29.99 in1015.6 mb 0.00 in0.0 mm 0.00 in0.0 mm 0.00 in0.0 mm
02:19 PM 86.2°F30.1°C 56.8°F13.8°C 37% 3.1 mph ENE5.0 kmh ENE 5.8 mph9.3 kmh 29.98 in1015.2 mb 0.00 in0.0 mm 0.00 in0.0 mm 0.00 in0.0 mm
02:17 PM 86.2°F30.1°C 56.1°F13.4°C 36% 3.6 mph NNW5.8 kmh NNW 8.7 mph14.0 kmh 29.98 in1015.2 mb 0.00 in0.0 mm 0.00 in0.0 mm 0.00 in0.0 mm
02:15 PM 85.8°F29.9°C 56.5°F13.6°C 37% 2.7 mph 4.3 kmh 2.9 mph4.7 kmh 29.98 in1015.2 mb 0.00 in0.0 mm 0.00 in0.0 mm 0.00 in0.0 mm
02:12 PM 85.6°F29.8°C 56.3°F13.5°C 37% 3.4 mph NE5.5 kmh NE 7.8 mph12.6 kmh 29.99 in1015.6 mb 0.00 in0.0 mm 0.00 in0.0 mm 0.00 in0.0 mm
02:10 PM 85.8°F29.9°C 56.5°F13.6°C 37% 4.0 mph SSW6.4 kmh SSW 8.1 mph13.0 kmh 29.99 in1015.6 mb 0.00 in0.0 mm 0.00 in0.0 mm 0.00 in0.0 mm
02:08 PM 85.8°F29.9°C 56.5°F13.6°C 37% 3.8 mph 6.1 kmh 7.4 mph11.9 kmh 29.99 in1015.6 mb 0.00 in0.0 mm 0.00 in0.0 mm 0.00 in0.0 mm
02:06 PM 86.0°F30.0°C 56.7°F13.7°C 37% 3.4 mph WNW5.5 kmh WNW 4.9 mph7.9 kmh 29.98 in1015.2 mb 0.00 in0.0 mm 0.00 in0.0 mm 0.00 in0.0 mm
02:03 PM 85.8°F29.9°C 56.5°F13.6°C 37% 3.8 mph SE6.1 kmh SE 5.8 mph9.3 kmh 29.98 in1015.2 mb 0.00 in0.0 mm 0.00 in0.0 mm 0.00 in0.0 mm
02:01 PM 85.8°F29.9°C 56.5°F13.6°C 37% 3.6 mph NW5.8 kmh NW 6.0 mph9.7 kmh 29.99 in1015.6 mb 0.00 in0.0 mm 0.00 in0.0 mm 0.00 in0.0 mm
01:59 PM 86.0°F30.0°C 56.7°F13.7°C 37% 3.1 mph NNE5.0 kmh NNE 9.6 mph15.4 kmh 29.99 in1015.6 mb 0.00 in0.0 mm 0.00 in0.0 mm 0.00 in0.0 mm
01:57 PM 85.8°F29.9°C 56.5°F13.6°C 37% 2.2 mph WNW3.5 kmh WNW 3.8 mph6.1 kmh 29.99 in1015.6 mb 0.00 in0.0 mm 0.00 in0.0 mm 0.00 in0.0 mm
01:55 PM 85.5°F29.7°C 56.3°F13.5°C 37% 2.7 mph NNW4.3 kmh NNW 8.7 mph14.0 kmh 29.99 in1015.6 mb 0.00 in0.0 mm 0.00 in0.0 mm 0.00 in0.0 mm
01:52 PM 84.9°F29.4°C 56.5°F13.6°C 38% 2.5 mph 4.0 kmh 6.9 mph11.1 kmh 29.99 in1015.6 mb 0.00 in0.0 mm 0.00 in0.0 mm 0.00 in0.0 mm
01:50 PM 84.7°F29.3°C 56.3°F13.5°C 38% 2.7 mph NNW4.3 kmh NNW 5.1 mph8.2 kmh 29.99 in1015.6 mb 0.00 in0.0 mm 0.00 in0.0 mm 0.00 in0.0 mm
01:48 PM 84.7°F29.3°C 56.3°F13.5°C 38% 2.7 mph NNW4.3 kmh NNW 6.0 mph9.7 kmh 29.99 in1015.6 mb 0.00 in0.0 mm 0.00 in0.0 mm 0.00 in0.0 mm
01:46 PM 84.9°F29.4°C 55.8°F13.2°C 37% 3.1 mph NW5.0 kmh NW 4.0 mph6.4 kmh 29.99 in1015.6 mb 0.00 in0.0 mm 0.00 in0.0 mm 0.00 in0.0 mm
01:44 PM 84.7°F29.3°C 55.6°F13.1°C 37% 3.8 mph NW6.1 kmh NW 10.1 mph16.3 kmh 29.99 in1015.6 mb 0.00 in0.0 mm 0.00 in0.0 mm 0.00 in0.0 mm
01:41 PM 84.9°F29.4°C 56.5°F13.6°C 38% 4.5 mph NW7.2 kmh NW 6.3 mph10.1 kmh 29.99 in1015.6 mb 0.00 in0.0 mm 0.00 in0.0 mm 0.00 in0.0 mm
01:39 PM 84.7°F29.3°C 56.3°F13.5°C 38% 5.1 mph NNE8.2 kmh NNE 10.7 mph17.2 kmh 29.99 in1015.6 mb 0.00 in0.0 mm 0.00 in0.0 mm 0.00 in0.0 mm
01:37 PM 84.6°F29.2°C 56.1°F13.4°C 38% 5.1 mph NNE8.2 kmh NNE 8.7 mph14.0 kmh 29.99 in1015.6 mb 0.00 in0.0 mm 0.00 in0.0 mm 0.00 in0.0 mm
01:35 PM 84.7°F29.3°C 56.3°F13.5°C 38% 5.4 mph NNW8.7 kmh NNW 9.8 mph15.8 kmh 29.99 in1015.6 mb 0.00 in0.0 mm 0.00 in0.0 mm 0.00 in0.0 mm
01:33 PM 84.9°F29.4°C 56.5°F13.6°C 38% 3.8 mph NW6.1 kmh NW 7.4 mph11.9 kmh 29.99 in1015.6 mb 0.00 in0.0 mm 0.00 in0.0 mm 0.00 in0.0 mm
01:31 PM 84.7°F29.3°C 55.6°F13.1°C 37% 3.1 mph NNW5.0 kmh NNW 9.8 mph15.8 kmh 29.99 in1015.6 mb 0.00 in0.0 mm 0.00 in0.0 mm 0.00 in0.0 mm
01:28 PM 85.1°F29.5°C 55.9°F13.3°C 37% 3.4 mph NW5.5 kmh NW 2.9 mph4.7 kmh 29.99 in1015.6 mb 0.00 in0.0 mm 0.00 in0.0 mm 0.00 in0.0 mm
01:26 PM 85.1°F29.5°C 55.9°F13.3°C 37% 4.3 mph NNE6.9 kmh NNE 9.2 mph14.8 kmh 29.99 in1015.6 mb 0.00 in0.0 mm 0.00 in0.0 mm 0.00 in0.0 mm
01:24 PM 84.9°F29.4°C 55.8°F13.2°C 37% 3.8 mph SE6.1 kmh SE 8.5 mph13.7 kmh 29.99 in1015.6 mb 0.00 in0.0 mm 0.00 in0.0 mm 0.00 in0.0 mm
01:21 PM 85.3°F29.6°C 56.1°F13.4°C 37% 4.3 mph NNW6.9 kmh NNW 10.3 mph16.6 kmh 29.99 in1015.6 mb 0.00 in0.0 mm 0.00 in0.0 mm 0.00 in0.0 mm
01:19 PM 84.9°F29.4°C 56.5°F13.6°C 38% 2.9 mph S4.7 kmh S 4.0 mph6.4 kmh 29.99 in1015.6 mb 0.00 in0.0 mm 0.00 in0.0 mm 0.00 in0.0 mm
01:17 PM 84.9°F29.4°C 55.8°F13.2°C 37% 3.6 mph NW5.8 kmh NW 5.6 mph9.0 kmh 29.99 in1015.6 mb 0.00 in0.0 mm 0.00 in0.0 mm 0.00 in0.0 mm
01:15 PM 85.3°F29.6°C 56.1°F13.4°C 37% 3.8 mph 6.1 kmh 6.7 mph10.8 kmh 29.99 in1015.6 mb 0.00 in0.0 mm 0.00 in0.0 mm 0.00 in0.0 mm
01:12 PM 85.3°F29.6°C 56.1°F13.4°C 37% 3.6 mph WSW5.8 kmh WSW 5.1 mph8.2 kmh 29.99 in1015.6 mb 0.00 in0.0 mm 0.00 in0.0 mm 0.00 in0.0 mm
01:10 PM 85.6°F29.8°C 56.3°F13.5°C 37% 4.3 mph NW6.9 kmh NW 7.4 mph11.9 kmh 30.00 in1015.9 mb 0.00 in0.0 mm 0.00 in0.0 mm 0.00 in0.0 mm
01:08 PM 85.6°F29.8°C 56.3°F13.5°C 37% 4.0 mph WSW6.4 kmh WSW 6.3 mph10.1 kmh 29.99 in1015.6 mb 0.00 in0.0 mm 0.00 in0.0 mm 0.00 in0.0 mm
01:06 PM 84.9°F29.4°C 56.5°F13.6°C 38% 3.8 mph NE6.1 kmh NE 5.4 mph8.7 kmh 29.99 in1015.6 mb 0.00 in0.0 mm 0.00 in0.0 mm 0.00 in0.0 mm
01:04 PM 84.4°F29.1°C 55.9°F13.3°C 38% 3.8 mph S6.1 kmh S 11.9 mph19.2 kmh 29.99 in1015.6 mb 0.00 in0.0 mm 0.00 in0.0 mm 0.00 in0.0 mm
01:01 PM 84.6°F29.2°C 56.1°F13.4°C 38% 4.0 mph NW6.4 kmh NW 8.7 mph14.0 kmh 29.99 in1015.6 mb 0.00 in0.0 mm 0.00 in0.0 mm 0.00 in0.0 mm
12:59 PM 84.4°F29.1°C 55.9°F13.3°C 38% 2.9 mph NE4.7 kmh NE 5.8 mph9.3 kmh 30.00 in1015.9 mb 0.00 in0.0 mm 0.00 in0.0 mm 0.00 in0.0 mm
12:57 PM 84.0°F28.9°C 56.5°F13.6°C 39% 2.5 mph NE4.0 kmh NE 5.1 mph8.2 kmh 30.00 in1015.9 mb 0.00 in0.0 mm 0.00 in0.0 mm 0.00 in0.0 mm
12:55 PM 83.8°F28.8°C 55.6°F13.1°C 38% 2.5 mph W4.0 kmh W 3.6 mph5.8 kmh 30.00 in1015.9 mb 0.00 in0.0 mm 0.00 in0.0 mm 0.00 in0.0 mm
12:53 PM 84.0°F28.9°C 56.5°F13.6°C 39% 3.4 mph SW5.5 kmh SW 3.6 mph5.8 kmh 30.00 in1015.9 mb 0.00 in0.0 mm 0.00 in0.0 mm 0.00 in0.0 mm
12:51 PM 84.0°F28.9°C 55.8°F13.2°C 38% 4.0 mph 6.4 kmh 7.4 mph11.9 kmh 30.00 in1015.9 mb 0.00 in0.0 mm 0.00 in0.0 mm 0.00 in0.0 mm
12:48 PM 84.0°F28.9°C 55.8°F13.2°C 38% 3.4 mph WNW5.5 kmh WNW 6.9 mph11.1 kmh 30.00 in1015.9 mb 0.00 in0.0 mm 0.00 in0.0 mm 0.00 in0.0 mm
12:46 PM 84.0°F28.9°C 55.8°F13.2°C 38% 2.7 mph 4.3 kmh 5.4 mph8.7 kmh 30.00 in1015.9 mb 0.00 in0.0 mm 0.00 in0.0 mm 0.00 in0.0 mm
12:44 PM 84.0°F28.9°C 56.5°F13.6°C 39% 2.5 mph 4.0 kmh 4.3 mph6.9 kmh 30.00 in1015.9 mb 0.00 in0.0 mm 0.00 in0.0 mm 0.00 in0.0 mm
12:42 PM 83.8°F28.8°C 55.6°F13.1°C 38% 2.9 mph SE4.7 kmh SE 8.3 mph13.4 kmh 30.00 in1015.9 mb 0.00 in0.0 mm 0.00 in0.0 mm 0.00 in0.0 mm
12:40 PM 84.0°F28.9°C 55.8°F13.2°C 38% 2.7 mph WNW4.3 kmh WNW 3.8 mph6.1 kmh 30.00 in1015.9 mb 0.00 in0.0 mm 0.00 in0.0 mm 0.00 in0.0 mm
12:37 PM 84.0°F28.9°C 56.5°F13.6°C 39% 2.9 mph NNW4.7 kmh NNW 3.6 mph5.8 kmh 30.00 in1015.9 mb 0.00 in0.0 mm 0.00 in0.0 mm 0.00 in0.0 mm
12:35 PM 83.8°F28.8°C 56.3°F13.5°C 39% 4.0 mph NW6.4 kmh NW 7.8 mph12.6 kmh 30.00 in1015.9 mb 0.00 in0.0 mm 0.00 in0.0 mm 0.00 in0.0 mm
12:33 PM 84.0°F28.9°C 55.8°F13.2°C 38% 2.9 mph NW4.7 kmh NW 4.0 mph6.4 kmh 30.00 in1015.9 mb 0.00 in0.0 mm 0.00 in0.0 mm 0.00 in0.0 mm
12:31 PM 84.0°F28.9°C 55.8°F13.2°C 38% 2.9 mph 4.7 kmh 6.3 mph10.1 kmh 30.00 in1015.9 mb 0.00 in0.0 mm 0.00 in0.0 mm 0.00 in0.0 mm
12:29 PM 84.4°F29.1°C 55.9°F13.3°C 38% 2.7 mph NNW4.3 kmh NNW 4.7 mph7.6 kmh 30.00 in1015.9 mb 0.00 in0.0 mm 0.00 in0.0 mm 0.00 in0.0 mm
12:26 PM 84.6°F29.2°C 56.1°F13.4°C 38% 2.5 mph W4.0 kmh W 4.0 mph6.4 kmh 30.00 in1015.9 mb 0.00 in0.0 mm 0.00 in0.0 mm 0.00 in0.0 mm
12:24 PM 84.4°F29.1°C 55.9°F13.3°C 38% 3.1 mph ENE5.0 kmh ENE 6.7 mph10.8 kmh 30.00 in1015.9 mb 0.00 in0.0 mm 0.00 in0.0 mm 0.00 in0.0 mm
12:22 PM 84.0°F28.9°C 56.5°F13.6°C 39% 3.1 mph NE5.0 kmh NE 5.8 mph9.3 kmh 30.00 in1015.9 mb 0.00 in0.0 mm 0.00 in0.0 mm 0.00 in0.0 mm
12:20 PM 83.7°F28.7°C 56.1°F13.4°C 39% 2.9 mph ENE4.7 kmh ENE 5.4 mph8.7 kmh 30.00 in1015.9 mb 0.00 in0.0 mm 0.00 in0.0 mm 0.00 in0.0 mm
12:18 PM 83.3°F28.5°C 55.8°F13.2°C 39% 3.4 mph NE5.5 kmh NE 4.7 mph7.6 kmh 30.00 in1015.9 mb 0.00 in0.0 mm 0.00 in0.0 mm 0.00 in0.0 mm
12:16 PM 83.5°F28.6°C 55.9°F13.3°C 39% 3.8 mph NNE6.1 kmh NNE 6.0 mph9.7 kmh 30.00 in1015.9 mb 0.00 in0.0 mm 0.00 in0.0 mm 0.00 in0.0 mm
12:14 PM 83.5°F28.6°C 55.9°F13.3°C 39% 3.1 mph ENE5.0 kmh ENE 6.5 mph10.5 kmh 30.01 in1016.3 mb 0.00 in0.0 mm 0.00 in0.0 mm 0.00 in0.0 mm
12:11 PM 83.5°F28.6°C 55.9°F13.3°C 39% 2.7 mph 4.3 kmh 6.0 mph9.7 kmh 30.00 in1015.9 mb 0.00 in0.0 mm 0.00 in0.0 mm 0.00 in0.0 mm
12:09 PM 83.1°F28.4°C 55.6°F13.1°C 39% 3.4 mph NNE5.5 kmh NNE 8.1 mph13.0 kmh 30.01 in1016.3 mb 0.00 in0.0 mm 0.00 in0.0 mm 0.00 in0.0 mm
12:07 PM 83.3°F28.5°C 55.8°F13.2°C 39% 3.4 mph ESE5.5 kmh ESE 6.3 mph10.1 kmh 30.00 in1015.9 mb 0.00 in0.0 mm 0.00 in0.0 mm 0.00 in0.0 mm
12:05 PM 83.1°F28.4°C 56.3°F13.5°C 40% 3.6 mph 5.8 kmh 6.3 mph10.1 kmh 30.01 in1016.3 mb 0.00 in0.0 mm 0.00 in0.0 mm 0.00 in0.0 mm
12:02 PM 82.6°F28.1°C 55.8°F13.2°C 40% 3.6 mph NNW5.8 kmh NNW 5.1 mph8.2 kmh 30.01 in1016.3 mb 0.00 in0.0 mm 0.00 in0.0 mm 0.00 in0.0 mm
12:00 PM 82.8°F28.2°C 55.9°F13.3°C 40% 4.0 mph NNW6.4 kmh NNW 8.5 mph13.7 kmh 30.01 in1016.3 mb 0.00 in0.0 mm 0.00 in0.0 mm 0.00 in0.0 mm
11:58 AM 82.6°F28.1°C 55.8°F13.2°C 40% 3.1 mph WNW5.0 kmh WNW 6.3 mph10.1 kmh 30.01 in1016.3 mb 0.00 in0.0 mm 0.00 in0.0 mm 0.00 in0.0 mm
11:56 AM 83.1°F28.4°C 55.6°F13.1°C 39% 2.9 mph NW4.7 kmh NW 8.3 mph13.4 kmh 30.01 in1016.3 mb 0.00 in0.0 mm 0.00 in0.0 mm 0.00 in0.0 mm
11:54 AM 83.1°F28.4°C 55.6°F13.1°C 39% 2.2 mph NNW3.5 kmh NNW 7.4 mph11.9 kmh 30.00 in1015.9 mb 0.00 in0.0 mm 0.00 in0.0 mm 0.00 in0.0 mm
11:51 AM 83.1°F28.4°C 55.6°F13.1°C 39% 1.6 mph NW2.6 kmh NW 2.0 mph3.2 kmh 30.00 in1015.9 mb 0.00 in0.0 mm 0.00 in0.0 mm 0.00 in0.0 mm
11:49 AM 83.1°F28.4°C 56.3°F13.5°C 40% 2.9 mph ENE4.7 kmh ENE 3.8 mph6.1 kmh 30.01 in1016.3 mb 0.00 in0.0 mm 0.00 in0.0 mm 0.00 in0.0 mm
11:47 AM 83.1°F28.4°C 55.6°F13.1°C 39% 3.6 mph ENE5.8 kmh ENE 8.5 mph13.7 kmh 30.01 in1016.3 mb 0.00 in0.0 mm 0.00 in0.0 mm 0.00 in0.0 mm
11:45 AM 83.3°F28.5°C 56.5°F13.6°C 40% 2.2 mph NNW3.5 kmh NNW 4.7 mph7.6 kmh 30.01 in1016.3 mb 0.00 in0.0 mm 0.00 in0.0 mm 0.00 in0.0 mm
11:42 AM 82.8°F28.2°C 56.7°F13.7°C 41% 1.3 mph SSW2.1 kmh SSW 2.5 mph4.0 kmh 30.01 in1016.3 mb 0.00 in0.0 mm 0.00 in0.0 mm 0.00 in0.0 mm
11:40 AM 82.6°F28.1°C 55.8°F13.2°C 40% 2.0 mph WNW3.2 kmh WNW 5.6 mph9.0 kmh 30.01 in1016.3 mb 0.00 in0.0 mm 0.00 in0.0 mm 0.00 in0.0 mm
11:38 AM 82.6°F28.1°C 55.8°F13.2°C 40% 1.8 mph NW2.9 kmh NW 5.8 mph9.3 kmh 30.01 in1016.3 mb 0.00 in0.0 mm 0.00 in0.0 mm 0.00 in0.0 mm
11:36 AM 82.2°F27.9°C 56.1°F13.4°C 41% 2.2 mph 3.5 kmh 3.6 mph5.8 kmh 30.01 in1016.3 mb 0.00 in0.0 mm 0.00 in0.0 mm 0.00 in0.0 mm
11:33 AM 82.0°F27.8°C 55.4°F13.0°C 40% 2.7 mph NW4.3 kmh NW 7.8 mph12.6 kmh 30.01 in1016.3 mb 0.00 in0.0 mm 0.00 in0.0 mm 0.00 in0.0 mm
11:31 AM 82.0°F27.8°C 55.9°F13.3°C 41% 2.5 mph WNW4.0 kmh WNW 3.8 mph6.1 kmh 30.01 in1016.3 mb 0.00 in0.0 mm 0.00 in0.0 mm 0.00 in0.0 mm
11:29 AM 81.7°F27.6°C 56.3°F13.5°C 42% 2.9 mph WNW4.7 kmh WNW 5.4 mph8.7 kmh 30.01 in1016.3 mb 0.00 in0.0 mm 0.00 in0.0 mm 0.00 in0.0 mm
11:27 AM 81.0°F27.2°C 55.8°F13.2°C 42% 3.1 mph 5.0 kmh 2.9 mph4.7 kmh 30.01 in1016.3 mb 0.00 in0.0 mm 0.00 in0.0 mm 0.00 in0.0 mm
11:25 AM 80.8°F27.1°C 54.9°F12.7°C 41% 4.0 mph NW6.4 kmh NW 5.1 mph8.2 kmh 30.01 in1016.3 mb 0.00 in0.0 mm 0.00 in0.0 mm 0.00 in0.0 mm
11:23 AM 80.8°F27.1°C 54.9°F12.7°C 41% 4.7 mph 7.6 kmh 11.4 mph18.3 kmh 30.01 in1016.3 mb 0.00 in0.0 mm 0.00 in0.0 mm 0.00 in0.0 mm
11:21 AM 80.8°F27.1°C 54.9°F12.7°C 41% 3.8 mph NW6.1 kmh NW 5.8 mph9.3 kmh 30.01 in1016.3 mb 0.00 in0.0 mm 0.00 in0.0 mm 0.00 in0.0 mm
11:19 AM 81.0°F27.2°C 55.0°F12.8°C 41% 3.6 mph SSE5.8 kmh SSE 4.9 mph7.9 kmh 30.01 in1016.3 mb 0.00 in0.0 mm 0.00 in0.0 mm 0.00 in0.0 mm
11:17 AM 81.0°F27.2°C 55.8°F13.2°C 42% 3.8 mph NNW6.1 kmh NNW 10.7 mph17.2 kmh 30.01 in1016.3 mb 0.00 in0.0 mm 0.00 in0.0 mm 0.00 in0.0 mm
11:14 AM 80.8°F27.1°C 54.9°F12.7°C 41% 3.6 mph 5.8 kmh 5.6 mph9.0 kmh 30.01 in1016.3 mb 0.00 in0.0 mm 0.00 in0.0 mm 0.00 in0.0 mm
11:12 AM 80.8°F27.1°C 55.6°F13.1°C 42% 4.3 mph NNW6.9 kmh NNW 8.5 mph13.7 kmh 30.01 in1016.3 mb 0.00 in0.0 mm 0.00 in0.0 mm 0.00 in0.0 mm
11:10 AM 81.1°F27.3°C 55.2°F12.9°C 41% 3.1 mph 5.0 kmh 5.4 mph8.7 kmh 30.01 in1016.3 mb 0.00 in0.0 mm 0.00 in0.0 mm 0.00 in0.0 mm
11:08 AM 80.8°F27.1°C 55.6°F13.1°C 42% 2.7 mph ESE4.3 kmh ESE 7.6 mph12.2 kmh 30.01 in1016.3 mb 0.00 in0.0 mm 0.00 in0.0 mm 0.00 in0.0 mm
11:06 AM 80.8°F27.1°C 55.6°F13.1°C 42% 2.9 mph SSW4.7 kmh SSW 7.6 mph12.2 kmh 30.01 in1016.3 mb 0.00 in0.0 mm 0.00 in0.0 mm 0.00 in0.0 mm
11:03 AM 80.4°F26.9°C 55.2°F12.9°C 42% 3.6 mph NNW5.8 kmh NNW 6.0 mph9.7 kmh 30.01 in1016.3 mb 0.00 in0.0 mm 0.00 in0.0 mm 0.00 in0.0 mm
11:01 AM 80.4°F26.9°C 55.2°F12.9°C 42% 3.1 mph SW5.0 kmh SW 5.4 mph8.7 kmh 30.01 in1016.3 mb 0.00 in0.0 mm 0.00 in0.0 mm 0.00 in0.0 mm
10:59 AM 80.1°F26.7°C 54.9°F12.7°C 42% 3.8 mph NNE6.1 kmh NNE 9.2 mph14.8 kmh 30.01 in1016.3 mb 0.00 in0.0 mm 0.00 in0.0 mm 0.00 in0.0 mm
10:57 AM 80.2°F26.8°C 55.0°F12.8°C 42% 3.6 mph NW5.8 kmh NW 10.3 mph16.6 kmh 30.01 in1016.3 mb 0.00 in0.0 mm 0.00 in0.0 mm 0.00 in0.0 mm
10:54 AM 80.2°F26.8°C 54.3°F12.4°C 41% 3.8 mph 6.1 kmh 6.5 mph10.5 kmh 30.01 in1016.3 mb 0.00 in0.0 mm 0.00 in0.0 mm 0.00 in0.0 mm
10:52 AM 80.4°F26.9°C 54.5°F12.5°C 41% 2.9 mph NNW4.7 kmh NNW 5.4 mph8.7 kmh 30.00 in1015.9 mb 0.00 in0.0 mm 0.00 in0.0 mm 0.00 in0.0 mm
10:50 AM 80.8°F27.1°C 54.9°F12.7°C 41% 1.8 mph WNW2.9 kmh WNW 3.8 mph6.1 kmh 30.01 in1016.3 mb 0.00 in0.0 mm 0.00 in0.0 mm 0.00 in0.0 mm
10:47 AM 81.0°F27.2°C 55.0°F12.8°C 41% 2.2 mph NNW3.5 kmh NNW 4.0 mph6.4 kmh 30.01 in1016.3 mb 0.00 in0.0 mm 0.00 in0.0 mm 0.00 in0.0 mm
10:45 AM 80.6°F27.0°C 55.4°F13.0°C 42% 2.2 mph S3.5 kmh S 3.1 mph5.0 kmh 30.01 in1016.3 mb 0.00 in0.0 mm 0.00 in0.0 mm 0.00 in0.0 mm
10:43 AM 80.4°F26.9°C 55.2°F12.9°C 42% 2.9 mph ENE4.7 kmh ENE 5.4 mph8.7 kmh 30.01 in1016.3 mb 0.00 in0.0 mm 0.00 in0.0 mm 0.00 in0.0 mm
10:41 AM 80.2°F26.8°C 55.0°F12.8°C 42% 2.0 mph ESE3.2 kmh ESE 3.6 mph5.8 kmh 30.01 in1016.3 mb 0.00 in0.0 mm 0.00 in0.0 mm 0.00 in0.0 mm
10:39 AM 79.7°F26.5°C 54.5°F12.5°C 42% 2.2 mph ENE3.5 kmh ENE 2.9 mph4.7 kmh 30.01 in1016.3 mb 0.00 in0.0 mm 0.00 in0.0 mm 0.00 in0.0 mm
10:37 AM 79.3°F26.3°C 54.9°F12.7°C 43% 2.2 mph NNE3.5 kmh NNE 4.0 mph6.4 kmh 30.01 in1016.3 mb 0.00 in0.0 mm 0.00 in0.0 mm 0.00 in0.0 mm
10:34 AM 79.0°F26.1°C 54.5°F12.5°C 43% 2.5 mph ESE4.0 kmh ESE 3.4 mph5.5 kmh 30.01 in1016.3 mb 0.00 in0.0 mm 0.00 in0.0 mm 0.00 in0.0 mm
10:32 AM 78.4°F25.8°C 54.1°F12.3°C 43% 2.9 mph 4.7 kmh 5.1 mph8.2 kmh 30.01 in1016.3 mb 0.00 in0.0 mm 0.00 in0.0 mm 0.00 in0.0 mm
10:30 AM 78.4°F25.8°C 54.7°F12.6°C 44% 2.7 mph 4.3 kmh 5.6 mph9.0 kmh 30.01 in1016.3 mb 0.00 in0.0 mm 0.00 in0.0 mm 0.00 in0.0 mm
10:28 AM 78.1°F25.6°C 54.3°F12.4°C 44% 2.9 mph NNW4.7 kmh NNW 5.8 mph9.3 kmh 30.01 in1016.3 mb 0.00 in0.0 mm 0.00 in0.0 mm 0.00 in0.0 mm
10:26 AM 77.9°F25.5°C 54.3°F12.4°C 44% 2.7 mph 4.3 kmh 6.3 mph10.1 kmh 30.02 in1016.6 mb 0.00 in0.0 mm 0.00 in0.0 mm 0.00 in0.0 mm
10:23 AM 77.7°F25.4°C 54.1°F12.3°C 44% 1.8 mph NE2.9 kmh NE 6.3 mph10.1 kmh 30.01 in1016.3 mb 0.00 in0.0 mm 0.00 in0.0 mm 0.00 in0.0 mm
10:21 AM 77.5°F25.3°C 54.0°F12.2°C 44% 1.8 mph NW2.9 kmh NW 4.5 mph7.2 kmh 30.01 in1016.3 mb 0.00 in0.0 mm 0.00 in0.0 mm 0.00 in0.0 mm
10:19 AM 77.7°F25.4°C 54.1°F12.3°C 44% 1.8 mph WNW2.9 kmh WNW 5.4 mph8.7 kmh 30.01 in1016.3 mb 0.00 in0.0 mm 0.00 in0.0 mm 0.00 in0.0 mm
10:17 AM 77.7°F25.4°C 54.1°F12.3°C 44% 1.8 mph NW2.9 kmh NW 5.4 mph8.7 kmh 30.01 in1016.3 mb 0.00 in0.0 mm 0.00 in0.0 mm 0.00 in0.0 mm
10:15 AM 78.1°F25.6°C 54.3°F12.4°C 44% 0.9 mph NNW1.4 kmh NNW 2.5 mph4.0 kmh 30.02 in1016.6 mb 0.00 in0.0 mm 0.00 in0.0 mm 0.00 in0.0 mm
10:12 AM 77.9°F25.5°C 54.3°F12.4°C 44% 1.1 mph NE1.8 kmh NE 2.2 mph3.5 kmh 30.02 in1016.6 mb 0.00 in0.0 mm 0.00 in0.0 mm 0.00 in0.0 mm
10:10 AM 77.7°F25.4°C 54.7°F12.6°C 45% 0.7 mph 1.1 kmh -- 30.02 in1016.6 mb 0.00 in0.0 mm 0.00 in0.0 mm 0.00 in0.0 mm
10:08 AM 77.2°F25.1°C 54.1°F12.3°C 45% 1.3 mph NNW2.1 kmh NNW 3.8 mph6.1 kmh 30.01 in1016.3 mb 0.00 in0.0 mm 0.00 in0.0 mm 0.00 in0.0 mm
10:06 AM 76.6°F24.8°C 54.3°F12.4°C 46% 1.6 mph WSW2.6 kmh WSW 2.9 mph4.7 kmh 30.02 in1016.6 mb 0.00 in0.0 mm 0.00 in0.0 mm 0.00 in0.0 mm
10:03 AM 76.3°F24.6°C 54.0°F12.2°C 46% 1.3 mph WSW2.1 kmh WSW 2.9 mph4.7 kmh 30.01 in1016.3 mb 0.00 in0.0 mm 0.00 in0.0 mm 0.00 in0.0 mm
10:01 AM 76.3°F24.6°C 54.5°F12.5°C 47% 1.3 mph 2.1 kmh 4.5 mph7.2 kmh 30.01 in1016.3 mb 0.00 in0.0 mm 0.00 in0.0 mm 0.00 in0.0 mm
09:59 AM 75.9°F24.4°C 54.3°F12.4°C 47% 1.1 mph NNE1.8 kmh NNE 1.6 mph2.6 kmh 30.01 in1016.3 mb 0.00 in0.0 mm 0.00 in0.0 mm 0.00 in0.0 mm
09:57 AM 75.9°F24.4°C 54.3°F12.4°C 47% 1.8 mph WNW2.9 kmh WNW 4.5 mph7.2 kmh 30.01 in1016.3 mb 0.00 in0.0 mm 0.00 in0.0 mm 0.00 in0.0 mm
09:55 AM 75.9°F24.4°C 54.3°F12.4°C 47% 2.0 mph NW3.2 kmh NW 4.7 mph7.6 kmh 30.02 in1016.6 mb 0.00 in0.0 mm 0.00 in0.0 mm 0.00 in0.0 mm
09:53 AM 76.1°F24.5°C 53.8°F12.1°C 46% 1.6 mph NNW2.6 kmh NNW 3.8 mph6.1 kmh 30.01 in1016.3 mb 0.00 in0.0 mm 0.00 in0.0 mm 0.00 in0.0 mm
09:50 AM 76.1°F24.5°C 53.8°F12.1°C 46% 1.1 mph W1.8 kmh W 2.9 mph4.7 kmh 30.02 in1016.6 mb 0.00 in0.0 mm 0.00 in0.0 mm 0.00 in0.0 mm
09:48 AM 76.1°F24.5°C 53.8°F12.1°C 46% 1.1 mph 1.8 kmh 5.1 mph8.2 kmh 30.02 in1016.6 mb 0.00 in0.0 mm 0.00 in0.0 mm 0.00 in0.0 mm
09:46 AM 75.7°F24.3°C 54.1°F12.3°C 47% 0.4 mph WNW0.6 kmh WNW 1.6 mph2.6 kmh 30.02 in1016.6 mb 0.00 in0.0 mm 0.00 in0.0 mm 0.00 in0.0 mm
09:44 AM 75.4°F24.1°C 53.8°F12.1°C 47% 0.7 mph NW1.1 kmh NW 0.7 mph1.1 kmh 30.02 in1016.6 mb 0.00 in0.0 mm 0.00 in0.0 mm 0.00 in0.0 mm
09:42 AM 75.0°F23.9°C 53.4°F11.9°C 47% 1.1 mph W1.8 kmh W 2.0 mph3.2 kmh 30.02 in1016.6 mb 0.00 in0.0 mm 0.00 in0.0 mm 0.00 in0.0 mm
09:40 AM 75.0°F23.9°C 53.4°F11.9°C 47% 1.3 mph 2.1 kmh 3.4 mph5.5 kmh 30.02 in1016.6 mb 0.00 in0.0 mm 0.00 in0.0 mm 0.00 in0.0 mm
09:38 AM 75.0°F23.9°C 54.0°F12.2°C 48% 1.1 mph 1.8 kmh 4.0 mph6.4 kmh 30.02 in1016.6 mb 0.00 in0.0 mm 0.00 in0.0 mm 0.00 in0.0 mm
09:36 AM 74.8°F23.8°C 53.8°F12.1°C 48% 0.7 mph NW1.1 kmh NW 1.6 mph2.6 kmh 30.02 in1016.6 mb 0.00 in0.0 mm 0.00 in0.0 mm 0.00 in0.0 mm
09:33 AM 74.5°F23.6°C 54.1°F12.3°C 49% 1.1 mph NNW1.8 kmh NNW 1.8 mph2.9 kmh 30.02 in1016.6 mb 0.00 in0.0 mm 0.00 in0.0 mm 0.00 in0.0 mm
09:31 AM 73.9°F23.3°C 54.1°F12.3°C 50% 0.7 mph SSW1.1 kmh SSW 1.1 mph1.8 kmh 30.01 in1016.3 mb 0.00 in0.0 mm 0.00 in0.0 mm 0.00 in0.0 mm
09:29 AM 73.6°F23.1°C 54.3°F12.4°C 51% 1.1 mph 1.8 kmh 1.8 mph2.9 kmh 30.01 in1016.3 mb 0.00 in0.0 mm 0.00 in0.0 mm 0.00 in0.0 mm
09:26 AM 73.2°F22.9°C 54.5°F12.5°C 52% 1.3 mph NW2.1 kmh NW 2.7 mph4.3 kmh 30.02 in1016.6 mb 0.00 in0.0 mm 0.00 in0.0 mm 0.00 in0.0 mm
09:24 AM 73.2°F22.9°C 54.5°F12.5°C 52% 2.0 mph WNW3.2 kmh WNW 3.4 mph5.5 kmh 30.02 in1016.6 mb 0.00 in0.0 mm 0.00 in0.0 mm 0.00 in0.0 mm
09:22 AM 73.0°F22.8°C 54.9°F12.7°C 53% 1.8 mph NW2.9 kmh NW 3.4 mph5.5 kmh 30.02 in1016.6 mb 0.00 in0.0 mm 0.00 in0.0 mm 0.00 in0.0 mm
09:20 AM 73.0°F22.8°C 54.9°F12.7°C 53% 2.2 mph 3.5 kmh 3.6 mph5.8 kmh 30.02 in1016.6 mb 0.00 in0.0 mm 0.00 in0.0 mm 0.00 in0.0 mm
09:17 AM 72.5°F22.5°C 54.9°F12.7°C 54% 2.0 mph NNW3.2 kmh NNW 2.7 mph4.3 kmh 30.02 in1016.6 mb 0.00 in0.0 mm 0.00 in0.0 mm 0.00 in0.0 mm
09:15 AM 72.3°F22.4°C 54.7°F12.6°C 54% 2.2 mph WNW3.5 kmh WNW 3.6 mph5.8 kmh 30.02 in1016.6 mb 0.00 in0.0 mm 0.00 in0.0 mm 0.00 in0.0 mm
09:13 AM 72.3°F22.4°C 55.2°F12.9°C 55% 1.6 mph NW2.6 kmh NW 3.8 mph6.1 kmh 30.02 in1016.6 mb 0.00 in0.0 mm 0.00 in0.0 mm 0.00 in0.0 mm
09:11 AM 72.1°F22.3°C 55.0°F12.8°C 55% 1.3 mph NW2.1 kmh NW 4.5 mph7.2 kmh 30.02 in1016.6 mb 0.00 in0.0 mm 0.00 in0.0 mm 0.00 in0.0 mm
09:08 AM 72.0°F22.2°C 55.4°F13.0°C 56% 1.3 mph NW2.1 kmh NW 3.4 mph5.5 kmh 30.02 in1016.6 mb 0.00 in0.0 mm 0.00 in0.0 mm 0.00 in0.0 mm
09:06 AM 71.6°F22.0°C 55.0°F12.8°C 56% 1.8 mph NW2.9 kmh NW 2.9 mph4.7 kmh 30.02 in1016.6 mb 0.00 in0.0 mm 0.00 in0.0 mm 0.00 in0.0 mm
09:04 AM 71.4°F21.9°C 54.9°F12.7°C 56% 2.5 mph 4.0 kmh 5.1 mph8.2 kmh 30.02 in1016.6 mb 0.00 in0.0 mm 0.00 in0.0 mm 0.00 in0.0 mm
09:02 AM 71.4°F21.9°C 55.4°F13.0°C 57% 1.8 mph 2.9 kmh 3.4 mph5.5 kmh 30.02 in1016.6 mb 0.00 in0.0 mm 0.00 in0.0 mm 0.00 in0.0 mm
08:59 AM 71.2°F21.8°C 55.2°F12.9°C 57% 1.1 mph 1.8 kmh 1.8 mph2.9 kmh 30.02 in1016.6 mb 0.00 in0.0 mm 0.00 in0.0 mm 0.00 in0.0 mm
08:57 AM 70.9°F21.6°C 54.9°F12.7°C 57% 1.8 mph NNW2.9 kmh NNW 2.7 mph4.3 kmh 30.02 in1016.6 mb 0.00 in0.0 mm 0.00 in0.0 mm 0.00 in0.0 mm
08:55 AM 70.9°F21.6°C 55.4°F13.0°C 58% 2.2 mph NNW3.5 kmh NNW 3.8 mph6.1 kmh 30.02 in1016.6 mb 0.00 in0.0 mm 0.00 in0.0 mm 0.00 in0.0 mm
08:53 AM 71.1°F21.7°C 55.6°F13.1°C 58% 1.6 mph NW2.6 kmh NW 5.6 mph9.0 kmh 30.02 in1016.6 mb 0.00 in0.0 mm 0.00 in0.0 mm 0.00 in0.0 mm
08:51 AM 71.1°F21.7°C 55.6°F13.1°C 58% 1.8 mph NW2.9 kmh NW 3.1 mph5.0 kmh 30.02 in1016.6 mb 0.00 in0.0 mm 0.00 in0.0 mm 0.00 in0.0 mm
08:49 AM 70.7°F21.5°C 55.6°F13.1°C 59% 1.8 mph SSE2.9 kmh SSE 3.4 mph5.5 kmh 30.02 in1016.6 mb 0.00 in0.0 mm 0.00 in0.0 mm 0.00 in0.0 mm
08:46 AM 70.9°F21.6°C 55.4°F13.0°C 58% 2.5 mph NW4.0 kmh NW 3.1 mph5.0 kmh 30.01 in1016.3 mb 0.00 in0.0 mm 0.00 in0.0 mm 0.00 in0.0 mm
08:44 AM 71.1°F21.7°C 55.6°F13.1°C 58% 2.2 mph NNW3.5 kmh NNW 6.0 mph9.7 kmh 30.02 in1016.6 mb 0.00 in0.0 mm 0.00 in0.0 mm 0.00 in0.0 mm
08:42 AM 71.2°F21.8°C 56.1°F13.4°C 59% 2.0 mph WNW3.2 kmh WNW 4.7 mph7.6 kmh 30.01 in1016.3 mb 0.00 in0.0 mm 0.00 in0.0 mm 0.00 in0.0 mm
08:40 AM 71.2°F21.8°C 56.1°F13.4°C 59% 1.1 mph WNW1.8 kmh WNW 2.0 mph3.2 kmh 30.01 in1016.3 mb 0.00 in0.0 mm 0.00 in0.0 mm 0.00 in0.0 mm
08:38 AM 70.9°F21.6°C 55.8°F13.2°C 59% 1.6 mph ESE2.6 kmh ESE 2.9 mph4.7 kmh 30.01 in1016.3 mb 0.00 in0.0 mm 0.00 in0.0 mm 0.00 in0.0 mm
08:35 AM 71.1°F21.7°C 55.9°F13.3°C 59% 1.8 mph NNW2.9 kmh NNW 5.1 mph8.2 kmh 30.01 in1016.3 mb 0.00 in0.0 mm 0.00 in0.0 mm 0.00 in0.0 mm
08:33 AM 70.9°F21.6°C 55.8°F13.2°C 59% 1.3 mph WNW2.1 kmh WNW 3.1 mph5.0 kmh 30.01 in1016.3 mb 0.00 in0.0 mm 0.00 in0.0 mm 0.00 in0.0 mm
08:31 AM 71.2°F21.8°C 56.7°F13.7°C 60% 0.9 mph NNE1.4 kmh NNE 2.7 mph4.3 kmh 30.01 in1016.3 mb 0.00 in0.0 mm 0.00 in0.0 mm 0.00 in0.0 mm
08:29 AM 71.2°F21.8°C 56.7°F13.7°C 60% 0.9 mph SSW1.4 kmh SSW 0.9 mph1.4 kmh 30.01 in1016.3 mb 0.00 in0.0 mm 0.00 in0.0 mm 0.00 in0.0 mm
08:26 AM 70.9°F21.6°C 56.3°F13.5°C 60% 1.3 mph NNE2.1 kmh NNE 2.7 mph4.3 kmh 30.01 in1016.3 mb 0.00 in0.0 mm 0.00 in0.0 mm 0.00 in0.0 mm
08:24 AM 70.9°F21.6°C 56.3°F13.5°C 60% 1.8 mph NW2.9 kmh NW 4.0 mph6.4 kmh 30.01 in1016.3 mb 0.00 in0.0 mm 0.00 in0.0 mm 0.00 in0.0 mm
08:22 AM 71.2°F21.8°C 56.7°F13.7°C 60% 1.3 mph WSW2.1 kmh WSW 4.3 mph6.9 kmh 30.02 in1016.6 mb 0.00 in0.0 mm 0.00 in0.0 mm 0.00 in0.0 mm
08:20 AM 71.2°F21.8°C 56.1°F13.4°C 59% 1.6 mph NW2.6 kmh NW 2.5 mph4.0 kmh 30.01 in1016.3 mb 0.00 in0.0 mm 0.00 in0.0 mm 0.00 in0.0 mm
08:18 AM 71.6°F22.0°C 56.5°F13.6°C 59% 1.8 mph WNW2.9 kmh WNW 4.0 mph6.4 kmh 30.01 in1016.3 mb 0.00 in0.0 mm 0.00 in0.0 mm 0.00 in0.0 mm
08:15 AM 72.0°F22.2°C 56.3°F13.5°C 58% 1.8 mph NNW2.9 kmh NNW 3.1 mph5.0 kmh 30.01 in1016.3 mb 0.00 in0.0 mm 0.00 in0.0 mm 0.00 in0.0 mm
08:13 AM 72.3°F22.4°C 56.3°F13.5°C 57% 1.8 mph NW2.9 kmh NW 3.1 mph5.0 kmh 30.01 in1016.3 mb 0.00 in0.0 mm 0.00 in0.0 mm 0.00 in0.0 mm
08:11 AM 72.7°F22.6°C 55.6°F13.1°C 55% 1.1 mph NNW1.8 kmh NNW 1.6 mph2.6 kmh 30.01 in1016.3 mb 0.00 in0.0 mm 0.00 in0.0 mm 0.00 in0.0 mm
08:09 AM 72.7°F22.6°C 54.5°F12.5°C 53% 1.3 mph WNW2.1 kmh WNW 2.0 mph3.2 kmh 30.01 in1016.3 mb 0.00 in0.0 mm 0.00 in0.0 mm 0.00 in0.0 mm
08:07 AM 72.5°F22.5°C 54.9°F12.7°C 54% 2.0 mph NNE3.2 kmh NNE 3.8 mph6.1 kmh 30.01 in1016.3 mb 0.00 in0.0 mm 0.00 in0.0 mm 0.00 in0.0 mm
08:04 AM 72.5°F22.5°C 55.4°F13.0°C 55% 1.8 mph SE2.9 kmh SE 2.9 mph4.7 kmh 30.01 in1016.3 mb 0.00 in0.0 mm 0.00 in0.0 mm 0.00 in0.0 mm
08:02 AM 72.3°F22.4°C 55.8°F13.2°C 56% 2.0 mph E3.2 kmh E 4.7 mph7.6 kmh 30.01 in1016.3 mb 0.00 in0.0 mm 0.00 in0.0 mm 0.00 in0.0 mm
08:00 AM 72.1°F22.3°C 56.1°F13.4°C 57% 1.6 mph E2.6 kmh E 2.7 mph4.3 kmh 30.01 in1016.3 mb 0.00 in0.0 mm 0.00 in0.0 mm 0.00 in0.0 mm
07:58 AM 71.8°F22.1°C 56.1°F13.4°C 58% 2.2 mph ESE3.5 kmh ESE 4.5 mph7.2 kmh 30.01 in1016.3 mb 0.00 in0.0 mm 0.00 in0.0 mm 0.00 in0.0 mm
07:55 AM 71.4°F21.9°C 56.3°F13.5°C 59% 1.8 mph ENE2.9 kmh ENE 4.9 mph7.9 kmh 30.01 in1016.3 mb 0.00 in0.0 mm 0.00 in0.0 mm 0.00 in0.0 mm
07:53 AM 71.1°F21.7°C 56.5°F13.6°C 60% 0.4 mph E0.6 kmh E 1.8 mph2.9 kmh 30.01 in1016.3 mb 0.00 in0.0 mm 0.00 in0.0 mm 0.00 in0.0 mm
07:51 AM 70.7°F21.5°C 56.7°F13.7°C 61% 0.2 mph ENE0.3 kmh ENE 1.1 mph1.8 kmh 30.01 in1016.3 mb 0.00 in0.0 mm 0.00 in0.0 mm 0.00 in0.0 mm
07:49 AM 70.2°F21.2°C 56.5°F13.6°C 62% 0.2 mph ENE0.3 kmh ENE -- 30.01 in1016.3 mb 0.00 in0.0 mm 0.00 in0.0 mm 0.00 in0.0 mm
07:46 AM 69.8°F21.0°C 56.1°F13.4°C 62% 0.2 mph ENE0.3 kmh ENE 1.1 mph1.8 kmh 30.01 in1016.3 mb 0.00 in0.0 mm 0.00 in0.0 mm 0.00 in0.0 mm
07:44 AM 69.6°F20.9°C 55.9°F13.3°C 62% 0.2 mph ENE0.3 kmh ENE 0.7 mph1.1 kmh 30.01 in1016.3 mb 0.00 in0.0 mm 0.00 in0.0 mm 0.00 in0.0 mm
07:42 AM 69.4°F20.8°C 56.3°F13.5°C 63% 0.2 mph NNE0.3 kmh NNE -- 30.02 in1016.6 mb 0.00 in0.0 mm 0.00 in0.0 mm 0.00 in0.0 mm
07:40 AM 68.9°F20.5°C 55.8°F13.2°C 63% 0.2 mph NE0.3 kmh NE -- 30.02 in1016.6 mb 0.00 in0.0 mm 0.00 in0.0 mm 0.00 in0.0 mm
07:38 AM 68.9°F20.5°C 55.8°F13.2°C 63% 0.2 mph NNW0.3 kmh NNW -- 30.02 in1016.6 mb 0.00 in0.0 mm 0.00 in0.0 mm 0.00 in0.0 mm
07:36 AM 68.7°F20.4°C 55.6°F13.1°C 63% 0.2 mph W0.3 kmh W -- 30.02 in1016.6 mb 0.00 in0.0 mm 0.00 in0.0 mm 0.00 in0.0 mm
07:34 AM 68.9°F20.5°C 55.8°F13.2°C 63% 0.2 mph WNW0.3 kmh WNW -- 30.02 in1016.6 mb 0.00 in0.0 mm 0.00 in0.0 mm 0.00 in0.0 mm
07:31 AM 68.9°F20.5°C 56.3°F13.5°C 64% 0.2 mph W0.3 kmh W -- 30.02 in1016.6 mb 0.00 in0.0 mm 0.00 in0.0 mm 0.00 in0.0 mm
07:29 AM 68.7°F20.4°C 56.1°F13.4°C 64% 0.2 mph W0.3 kmh W -- 30.02 in1016.6 mb 0.00 in0.0 mm 0.00 in0.0 mm 0.00 in0.0 mm
07:27 AM 68.5°F20.3°C 55.9°F13.3°C 64% 0.2 mph WSW0.3 kmh WSW -- 30.02 in1016.6 mb 0.00 in0.0 mm 0.00 in0.0 mm 0.00 in0.0 mm
07:25 AM 68.0°F20.0°C 55.4°F13.0°C 64% 0.2 mph ESE0.3 kmh ESE -- 30.01 in1016.3 mb 0.00 in0.0 mm 0.00 in0.0 mm 0.00 in0.0 mm
07:22 AM 67.8°F19.9°C 55.6°F13.1°C 65% 0.2 mph NNE0.3 kmh NNE 0.7 mph1.1 kmh 30.01 in1016.3 mb 0.00 in0.0 mm 0.00 in0.0 mm 0.00 in0.0 mm
07:20 AM 67.6°F19.8°C 55.4°F13.0°C 65% 0.2 mph 0.3 kmh -- 30.02 in1016.6 mb 0.00 in0.0 mm 0.00 in0.0 mm 0.00 in0.0 mm
07:18 AM 67.3°F19.6°C 55.0°F12.8°C 65% 0.2 mph 0.3 kmh -- 30.02 in1016.6 mb 0.00 in0.0 mm 0.00 in0.0 mm 0.00 in0.0 mm
07:16 AM 67.1°F19.5°C 54.9°F12.7°C 65% 0.2 mph W0.3 kmh W -- 30.01 in1016.3 mb 0.00 in0.0 mm 0.00 in0.0 mm 0.00 in0.0 mm
07:13 AM 66.7°F19.3°C 54.7°F12.6°C 65% 0.2 mph WNW0.3 kmh WNW -- 30.01 in1016.3 mb 0.00 in0.0 mm 0.00 in0.0 mm 0.00 in0.0 mm
07:11 AM 66.7°F19.3°C 54.7°F12.6°C 65% 0.2 mph W0.3 kmh W -- 30.01 in1016.3 mb 0.00 in0.0 mm 0.00 in0.0 mm 0.00 in0.0 mm
07:09 AM 66.7°F19.3°C 54.7°F12.6°C 65% 0.2 mph W0.3 kmh W -- 30.01 in1016.3 mb 0.00 in0.0 mm 0.00 in0.0 mm 0.00 in0.0 mm
07:07 AM 66.7°F19.3°C 54.7°F12.6°C 65% 0.4 mph W0.6 kmh W -- 30.01 in1016.3 mb 0.00 in0.0 mm 0.00 in0.0 mm 0.00 in0.0 mm
07:05 AM 66.7°F19.3°C 54.7°F12.6°C 65% 0.7 mph WNW1.1 kmh WNW 1.1 mph1.8 kmh 30.01 in1016.3 mb 0.00 in0.0 mm 0.00 in0.0 mm 0.00 in0.0 mm
07:02 AM 66.7°F19.3°C 54.7°F12.6°C 65% 0.2 mph W0.3 kmh W 0.9 mph1.4 kmh 30.01 in1016.3 mb 0.00 in0.0 mm 0.00 in0.0 mm 0.00 in0.0 mm
07:00 AM 66.7°F19.3°C 55.0°F12.8°C 66% 0.2 mph W0.3 kmh W -- 30.01 in1016.3 mb 0.00 in0.0 mm 0.00 in0.0 mm 0.00 in0.0 mm
06:58 AM 66.4°F19.1°C 54.7°F12.6°C 66% 0.2 mph W0.3 kmh W -- 30.01 in1016.3 mb 0.00 in0.0 mm 0.00 in0.0 mm 0.00 in0.0 mm
06:56 AM 66.4°F19.1°C 54.7°F12.6°C 66% 0.2 mph W0.3 kmh W -- 30.01 in1016.3 mb 0.00 in0.0 mm 0.00 in0.0 mm 0.00 in0.0 mm
06:54 AM 66.0°F18.9°C 54.3°F12.4°C 66% 0.2 mph WSW0.3 kmh WSW -- 30.01 in1016.3 mb 0.00 in0.0 mm 0.00 in0.0 mm 0.00 in0.0 mm
06:51 AM 65.8°F18.8°C 54.1°F12.3°C 66% 0.2 mph W0.3 kmh W -- 30.01 in1016.3 mb 0.00 in0.0 mm 0.00 in0.0 mm 0.00 in0.0 mm
06:49 AM 65.5°F18.6°C 53.8°F12.1°C 66% 0.2 mph 0.3 kmh -- 30.01 in1016.3 mb 0.00 in0.0 mm 0.00 in0.0 mm 0.00 in0.0 mm
06:47 AM 65.1°F18.4°C 53.4°F11.9°C 66% 0.4 mph NE0.6 kmh NE -- 30.01 in1016.3 mb 0.00 in0.0 mm 0.00 in0.0 mm 0.00 in0.0 mm
06:45 AM 64.8°F18.2°C 53.1°F11.7°C 66% 0.9 mph ESE1.4 kmh ESE 1.1 mph1.8 kmh 30.01 in1016.3 mb 0.00 in0.0 mm 0.00 in0.0 mm 0.00 in0.0 mm
06:42 AM 64.8°F18.2°C 53.1°F11.7°C 66% 1.3 mph ESE2.1 kmh ESE 1.6 mph2.6 kmh 30.01 in1016.3 mb 0.00 in0.0 mm 0.00 in0.0 mm 0.00 in0.0 mm
06:40 AM 64.6°F18.1°C 52.9°F11.6°C 66% 1.6 mph E2.6 kmh E 2.0 mph3.2 kmh 30.01 in1016.3 mb 0.00 in0.0 mm 0.00 in0.0 mm 0.00 in0.0 mm
06:38 AM 64.8°F18.2°C 53.1°F11.7°C 66% 1.3 mph ESE2.1 kmh ESE 2.5 mph4.0 kmh 30.01 in1016.3 mb 0.00 in0.0 mm 0.00 in0.0 mm 0.00 in0.0 mm
06:36 AM 64.6°F18.1°C 52.9°F11.6°C 66% 0.4 mph ESE0.6 kmh ESE 1.3 mph2.1 kmh 30.01 in1016.3 mb 0.00 in0.0 mm 0.00 in0.0 mm 0.00 in0.0 mm
06:34 AM 64.2°F17.9°C 52.7°F11.5°C 66% 0.2 mph SW0.3 kmh SW -- 30.01 in1016.3 mb 0.00 in0.0 mm 0.00 in0.0 mm 0.00 in0.0 mm
06:31 AM 64.0°F17.8°C 52.5°F11.4°C 66% 0.2 mph E0.3 kmh E 0.9 mph1.4 kmh 30.01 in1016.3 mb 0.00 in0.0 mm 0.00 in0.0 mm 0.00 in0.0 mm
06:29 AM 64.0°F17.8°C 52.5°F11.4°C 66% 0.2 mph ESE0.3 kmh ESE -- 30.01 in1016.3 mb 0.00 in0.0 mm 0.00 in0.0 mm 0.00 in0.0 mm
06:27 AM 63.7°F17.6°C 51.6°F10.9°C 65% 0.4 mph SSW0.6 kmh SSW -- 30.01 in1016.3 mb 0.00 in0.0 mm 0.00 in0.0 mm 0.00 in0.0 mm
06:25 AM 63.7°F17.6°C 51.6°F10.9°C 65% 0.7 mph 1.1 kmh -- 30.01 in1016.3 mb 0.00 in0.0 mm 0.00 in0.0 mm 0.00 in0.0 mm
06:22 AM 63.5°F17.5°C 51.4°F10.8°C 65% 1.1 mph ESE1.8 kmh ESE 1.3 mph2.1 kmh 30.01 in1016.3 mb 0.00 in0.0 mm 0.00 in0.0 mm 0.00 in0.0 mm
06:20 AM 63.5°F17.5°C 51.4°F10.8°C 65% 1.6 mph ESE2.6 kmh ESE 2.9 mph4.7 kmh 30.01 in1016.3 mb 0.00 in0.0 mm 0.00 in0.0 mm 0.00 in0.0 mm
06:18 AM 64.0°F17.8°C 52.0°F11.1°C 65% 1.6 mph E2.6 kmh E 3.6 mph5.8 kmh 30.01 in1016.3 mb 0.00 in0.0 mm 0.00 in0.0 mm 0.00 in0.0 mm
06:16 AM 64.0°F17.8°C 52.5°F11.4°C 66% 0.4 mph E0.6 kmh E 2.2 mph3.5 kmh 30.00 in1015.9 mb 0.00 in0.0 mm 0.00 in0.0 mm 0.00 in0.0 mm
06:14 AM 63.7°F17.6°C 52.2°F11.2°C 66% 0.2 mph NW0.3 kmh NW -- 30.00 in1015.9 mb 0.00 in0.0 mm 0.00 in0.0 mm 0.00 in0.0 mm
06:12 AM 63.9°F17.7°C 52.3°F11.3°C 66% 0.2 mph WSW0.3 kmh WSW -- 30.00 in1015.9 mb 0.00 in0.0 mm 0.00 in0.0 mm 0.00 in0.0 mm
06:10 AM 63.7°F17.6°C 51.6°F10.9°C 65% 0.2 mph W0.3 kmh W -- 30.00 in1015.9 mb 0.00 in0.0 mm 0.00 in0.0 mm 0.00 in0.0 mm
06:08 AM 63.3°F17.4°C 51.8°F11.0°C 66% 0.2 mph E0.3 kmh E -- 30.00 in1015.9 mb 0.00 in0.0 mm 0.00 in0.0 mm 0.00 in0.0 mm
06:05 AM 63.0°F17.2°C 51.4°F10.8°C 66% 0.2 mph ENE0.3 kmh ENE -- 30.00 in1015.9 mb 0.00 in0.0 mm 0.00 in0.0 mm 0.00 in0.0 mm
06:03 AM 62.4°F16.9°C 50.5°F10.3°C 65% 0.4 mph E0.6 kmh E -- 30.00 in1015.9 mb 0.00 in0.0 mm 0.00 in0.0 mm 0.00 in0.0 mm
06:01 AM 62.2°F16.8°C 50.4°F10.2°C 65% 0.4 mph ESE0.6 kmh ESE 0.9 mph1.4 kmh 30.00 in1015.9 mb 0.00 in0.0 mm 0.00 in0.0 mm 0.00 in0.0 mm
05:59 AM 62.4°F16.9°C 50.5°F10.3°C 65% 0.9 mph SE1.4 kmh SE 1.6 mph2.6 kmh 30.00 in1015.9 mb 0.00 in0.0 mm 0.00 in0.0 mm 0.00 in0.0 mm
05:57 AM 62.4°F16.9°C 50.5°F10.3°C 65% 0.4 mph E0.6 kmh E 0.9 mph1.4 kmh 30.00 in1015.9 mb 0.00 in0.0 mm 0.00 in0.0 mm 0.00 in0.0 mm
05:55 AM 62.4°F16.9°C 50.5°F10.3°C 65% 0.7 mph ESE1.1 kmh ESE 1.1 mph1.8 kmh 30.00 in1015.9 mb 0.00 in0.0 mm 0.00 in0.0 mm 0.00 in0.0 mm
05:53 AM 62.2°F16.8°C 50.4°F10.2°C 65% 0.7 mph ESE1.1 kmh ESE 0.9 mph1.4 kmh 30.00 in1015.9 mb 0.00 in0.0 mm 0.00 in0.0 mm 0.00 in0.0 mm
05:50 AM 62.2°F16.8°C 50.4°F10.2°C 65% 1.1 mph SE1.8 kmh SE 1.8 mph2.9 kmh 30.00 in1015.9 mb 0.00 in0.0 mm 0.00 in0.0 mm 0.00 in0.0 mm
05:48 AM 62.2°F16.8°C 50.4°F10.2°C 65% 1.6 mph SSE2.6 kmh SSE 3.6 mph5.8 kmh 30.00 in1015.9 mb 0.00 in0.0 mm 0.00 in0.0 mm 0.00 in0.0 mm
05:46 AM 62.4°F16.9°C 50.9°F10.5°C 66% 1.8 mph ESE2.9 kmh ESE 3.8 mph6.1 kmh 30.00 in1015.9 mb 0.00 in0.0 mm 0.00 in0.0 mm 0.00 in0.0 mm
05:44 AM 62.4°F16.9°C 50.9°F10.5°C 66% 0.7 mph ESE1.1 kmh ESE 2.0 mph3.2 kmh 30.00 in1015.9 mb 0.00 in0.0 mm 0.00 in0.0 mm 0.00 in0.0 mm
05:41 AM 62.2°F16.8°C 50.7°F10.4°C 66% 0.2 mph SE0.3 kmh SE -- 30.00 in1015.9 mb 0.00 in0.0 mm 0.00 in0.0 mm 0.00 in0.0 mm
05:39 AM 62.2°F16.8°C 50.7°F10.4°C 66% 0.2 mph W0.3 kmh W -- 30.00 in1015.9 mb 0.00 in0.0 mm 0.00 in0.0 mm 0.00 in0.0 mm
05:37 AM 62.1°F16.7°C 50.9°F10.5°C 67% 0.2 mph SSE0.3 kmh SSE -- 30.00 in1015.9 mb 0.00 in0.0 mm 0.00 in0.0 mm 0.00 in0.0 mm
05:35 AM 61.7°F16.5°C 50.7°F10.4°C 67% 0.2 mph 0.3 kmh -- 29.99 in1015.6 mb 0.00 in0.0 mm 0.00 in0.0 mm 0.00 in0.0 mm
05:32 AM 61.5°F16.4°C 50.5°F10.3°C 67% 0.2 mph NE0.3 kmh NE -- 29.99 in1015.6 mb 0.00 in0.0 mm 0.00 in0.0 mm 0.00 in0.0 mm
05:30 AM 61.0°F16.1°C 50.0°F10.0°C 67% 0.4 mph ESE0.6 kmh ESE -- 29.99 in1015.6 mb 0.00 in0.0 mm 0.00 in0.0 mm 0.00 in0.0 mm
05:28 AM 60.8°F16.0°C 49.8°F9.9°C 67% 0.9 mph E1.4 kmh E 0.9 mph1.4 kmh 29.99 in1015.6 mb 0.00 in0.0 mm 0.00 in0.0 mm 0.00 in0.0 mm
05:26 AM 60.6°F15.9°C 49.6°F9.8°C 67% 1.6 mph SE2.6 kmh SE 1.8 mph2.9 kmh 29.99 in1015.6 mb 0.00 in0.0 mm 0.00 in0.0 mm 0.00 in0.0 mm
05:23 AM 61.0°F16.1°C 50.0°F10.0°C 67% 1.8 mph ENE2.9 kmh ENE 2.5 mph4.0 kmh 30.00 in1015.9 mb 0.00 in0.0 mm 0.00 in0.0 mm 0.00 in0.0 mm
05:21 AM 61.0°F16.1°C 50.0°F10.0°C 67% 1.8 mph SE2.9 kmh SE 2.7 mph4.3 kmh 29.99 in1015.6 mb 0.00 in0.0 mm 0.00 in0.0 mm 0.00 in0.0 mm
05:19 AM 60.8°F16.0°C 49.8°F9.9°C 67% 1.1 mph SSE1.8 kmh SSE 2.5 mph4.0 kmh 29.99 in1015.6 mb 0.00 in0.0 mm 0.00 in0.0 mm 0.00 in0.0 mm
05:17 AM 60.8°F16.0°C 49.8°F9.9°C 67% 0.9 mph SSE1.4 kmh SSE -- 29.99 in1015.6 mb 0.00 in0.0 mm 0.00 in0.0 mm 0.00 in0.0 mm
05:15 AM 60.8°F16.0°C 49.8°F9.9°C 67% 1.8 mph ESE2.9 kmh ESE 2.2 mph3.5 kmh 29.99 in1015.6 mb 0.00 in0.0 mm 0.00 in0.0 mm 0.00 in0.0 mm
05:12 AM 60.8°F16.0°C 49.8°F9.9°C 67% 2.7 mph ESE4.3 kmh ESE 2.2 mph3.5 kmh 29.99 in1015.6 mb 0.00 in0.0 mm 0.00 in0.0 mm 0.00 in0.0 mm
05:10 AM 60.8°F16.0°C 49.8°F9.9°C 67% 3.8 mph SSW6.1 kmh SSW 3.8 mph6.1 kmh 29.99 in1015.6 mb 0.00 in0.0 mm 0.00 in0.0 mm 0.00 in0.0 mm
05:08 AM 60.6°F15.9°C 49.6°F9.8°C 67% 4.5 mph SSE7.2 kmh SSE 4.7 mph7.6 kmh 29.99 in1015.6 mb 0.00 in0.0 mm 0.00 in0.0 mm 0.00 in0.0 mm
05:06 AM 60.6°F15.9°C 49.3°F9.6°C 66% 5.1 mph SE8.2 kmh SE 7.4 mph11.9 kmh 29.99 in1015.6 mb 0.00 in0.0 mm 0.00 in0.0 mm 0.00 in0.0 mm
05:04 AM 60.8°F16.0°C 49.5°F9.7°C 66% 4.9 mph SE7.9 kmh SE 6.3 mph10.1 kmh 29.99 in1015.6 mb 0.00 in0.0 mm 0.00 in0.0 mm 0.00 in0.0 mm
05:01 AM 61.0°F16.1°C 50.0°F10.0°C 67% 4.9 mph SE7.9 kmh SE 7.2 mph11.6 kmh 29.99 in1015.6 mb 0.00 in0.0 mm 0.00 in0.0 mm 0.00 in0.0 mm
04:59 AM 61.0°F16.1°C 50.0°F10.0°C 67% 4.0 mph SE6.4 kmh SE 5.1 mph8.2 kmh 29.99 in1015.6 mb 0.00 in0.0 mm 0.00 in0.0 mm 0.00 in0.0 mm
04:57 AM 61.0°F16.1°C 50.0°F10.0°C 67% 3.8 mph SE6.1 kmh SE 4.5 mph7.2 kmh 29.99 in1015.6 mb 0.00 in0.0 mm 0.00 in0.0 mm 0.00 in0.0 mm
04:54 AM 61.0°F16.1°C 50.0°F10.0°C 67% 3.8 mph ESE6.1 kmh ESE 4.5 mph7.2 kmh 29.99 in1015.6 mb 0.00 in0.0 mm 0.00 in0.0 mm 0.00 in0.0 mm
04:52 AM 61.0°F16.1°C 50.0°F10.0°C 67% 4.0 mph ESE6.4 kmh ESE 4.5 mph7.2 kmh 29.99 in1015.6 mb 0.00 in0.0 mm 0.00 in0.0 mm 0.00 in0.0 mm
04:50 AM 60.8°F16.0°C 49.8°F9.9°C 67% 4.5 mph ESE7.2 kmh ESE 6.7 mph10.8 kmh 29.99 in1015.6 mb 0.00 in0.0 mm 0.00 in0.0 mm 0.00 in0.0 mm
04:48 AM 60.6°F15.9°C 49.6°F9.8°C 67% 4.7 mph ESE7.6 kmh ESE 6.3 mph10.1 kmh 29.99 in1015.6 mb 0.00 in0.0 mm 0.00 in0.0 mm 0.00 in0.0 mm
04:45 AM 60.6°F15.9°C 49.6°F9.8°C 67% 4.9 mph SE7.9 kmh SE 5.8 mph9.3 kmh 29.99 in1015.6 mb 0.00 in0.0 mm 0.00 in0.0 mm 0.00 in0.0 mm
04:43 AM 61.0°F16.1°C 50.4°F10.2°C 68% 5.8 mph SE9.3 kmh SE 6.7 mph10.8 kmh 29.99 in1015.6 mb 0.00 in0.0 mm 0.00 in0.0 mm 0.00 in0.0 mm
04:41 AM 61.0°F16.1°C 50.4°F10.2°C 68% 5.6 mph ESE9.0 kmh ESE 7.6 mph12.2 kmh 29.99 in1015.6 mb 0.00 in0.0 mm 0.00 in0.0 mm 0.00 in0.0 mm
04:39 AM 61.0°F16.1°C 50.7°F10.4°C 69% 5.1 mph SE8.2 kmh SE 6.0 mph9.7 kmh 29.99 in1015.6 mb 0.00 in0.0 mm 0.00 in0.0 mm 0.00 in0.0 mm
04:37 AM 61.2°F16.2°C 50.9°F10.5°C 69% 4.9 mph E7.9 kmh E 5.8 mph9.3 kmh 29.99 in1015.6 mb 0.00 in0.0 mm 0.00 in0.0 mm 0.00 in0.0 mm
04:35 AM 61.2°F16.2°C 50.9°F10.5°C 69% 4.9 mph SE7.9 kmh SE 6.7 mph10.8 kmh 29.99 in1015.6 mb 0.00 in0.0 mm 0.00 in0.0 mm 0.00 in0.0 mm
04:33 AM 61.0°F16.1°C 50.7°F10.4°C 69% 4.9 mph SE7.9 kmh SE 6.3 mph10.1 kmh 29.99 in1015.6 mb 0.00 in0.0 mm 0.00 in0.0 mm 0.00 in0.0 mm
04:31 AM 61.2°F16.2°C 51.3°F10.7°C 70% 4.5 mph SE7.2 kmh SE 6.0 mph9.7 kmh 29.99 in1015.6 mb 0.00 in0.0 mm 0.00 in0.0 mm 0.00 in0.0 mm
04:28 AM 61.0°F16.1°C 51.1°F10.6°C 70% 3.8 mph ESE6.1 kmh ESE 4.9 mph7.9 kmh 29.99 in1015.6 mb 0.00 in0.0 mm 0.00 in0.0 mm 0.00 in0.0 mm
04:26 AM 60.6°F15.9°C 50.7°F10.4°C 70% 3.8 mph ESE6.1 kmh ESE 4.9 mph7.9 kmh 29.99 in1015.6 mb 0.00 in0.0 mm 0.00 in0.0 mm 0.00 in0.0 mm
04:24 AM 60.4°F15.8°C 50.5°F10.3°C 70% 4.3 mph SE6.9 kmh SE 4.7 mph7.6 kmh 29.99 in1015.6 mb 0.00 in0.0 mm 0.00 in0.0 mm 0.00 in0.0 mm
04:22 AM 60.3°F15.7°C 50.4°F10.2°C 70% 4.3 mph SE6.9 kmh SE 5.4 mph8.7 kmh 29.99 in1015.6 mb 0.00 in0.0 mm 0.00 in0.0 mm 0.00 in0.0 mm
04:20 AM 60.1°F15.6°C 49.8°F9.9°C 69% 4.5 mph SE7.2 kmh SE 5.4 mph8.7 kmh 29.99 in1015.6 mb 0.00 in0.0 mm 0.00 in0.0 mm 0.00 in0.0 mm
04:17 AM 59.9°F15.5°C 49.6°F9.8°C 69% 4.9 mph SE7.9 kmh SE 6.3 mph10.1 kmh 29.99 in1015.6 mb 0.00 in0.0 mm 0.00 in0.0 mm 0.00 in0.0 mm
04:15 AM 59.7°F15.4°C 49.5°F9.7°C 69% 4.9 mph SE7.9 kmh SE 5.4 mph8.7 kmh 29.99 in1015.6 mb 0.00 in0.0 mm 0.00 in0.0 mm 0.00 in0.0 mm
04:13 AM 59.7°F15.4°C 49.5°F9.7°C 69% 5.4 mph ESE8.7 kmh ESE 7.8 mph12.6 kmh 29.99 in1015.6 mb 0.00 in0.0 mm 0.00 in0.0 mm 0.00 in0.0 mm
04:11 AM 59.9°F15.5°C 50.2°F10.1°C 70% 5.4 mph ESE8.7 kmh ESE 6.3 mph10.1 kmh 29.99 in1015.6 mb 0.00 in0.0 mm 0.00 in0.0 mm 0.00 in0.0 mm
04:09 AM 60.1°F15.6°C 50.2°F10.1°C 70% 5.8 mph SE9.3 kmh SE 7.4 mph11.9 kmh 30.00 in1015.9 mb 0.00 in0.0 mm 0.00 in0.0 mm 0.00 in0.0 mm
04:06 AM 60.4°F15.8°C 50.5°F10.3°C 70% 5.8 mph ESE9.3 kmh ESE 8.1 mph13.0 kmh 29.99 in1015.6 mb 0.00 in0.0 mm 0.00 in0.0 mm 0.00 in0.0 mm
04:04 AM 60.6°F15.9°C 50.7°F10.4°C 70% 5.4 mph SE8.7 kmh SE 9.2 mph14.8 kmh 30.00 in1015.9 mb 0.00 in0.0 mm 0.00 in0.0 mm 0.00 in0.0 mm
04:02 AM 60.6°F15.9°C 50.7°F10.4°C 70% 3.8 mph ESE6.1 kmh ESE 6.7 mph10.8 kmh 29.99 in1015.6 mb 0.00 in0.0 mm 0.00 in0.0 mm 0.00 in0.0 mm
04:00 AM 60.6°F15.9°C 50.7°F10.4°C 70% 3.1 mph ESE5.0 kmh ESE 4.5 mph7.2 kmh 30.00 in1015.9 mb 0.00 in0.0 mm 0.00 in0.0 mm 0.00 in0.0 mm
03:58 AM 60.6°F15.9°C 50.7°F10.4°C 70% 2.9 mph ESE4.7 kmh ESE 3.8 mph6.1 kmh 30.00 in1015.9 mb 0.00 in0.0 mm 0.00 in0.0 mm 0.00 in0.0 mm
03:55 AM 60.6°F15.9°C 50.7°F10.4°C 70% 2.7 mph SE4.3 kmh SE 3.8 mph6.1 kmh 29.99 in1015.6 mb 0.00 in0.0 mm 0.00 in0.0 mm 0.00 in0.0 mm
03:53 AM 60.6°F15.9°C 50.7°F10.4°C 70% 2.9 mph SE4.7 kmh SE 3.8 mph6.1 kmh 30.00 in1015.9 mb 0.00 in0.0 mm 0.00 in0.0 mm 0.00 in0.0 mm
03:51 AM 60.6°F15.9°C 50.4°F10.2°C 69% 3.1 mph SE5.0 kmh SE 3.4 mph5.5 kmh 30.00 in1015.9 mb 0.00 in0.0 mm 0.00 in0.0 mm 0.00 in0.0 mm
03:49 AM 60.6°F15.9°C 50.4°F10.2°C 69% 3.4 mph SE5.5 kmh SE 4.5 mph7.2 kmh 30.00 in1015.9 mb 0.00 in0.0 mm 0.00 in0.0 mm 0.00 in0.0 mm
03:46 AM 60.6°F15.9°C 50.4°F10.2°C 69% 3.4 mph SE5.5 kmh SE 3.6 mph5.8 kmh 30.00 in1015.9 mb 0.00 in0.0 mm 0.00 in0.0 mm 0.00 in0.0 mm
03:44 AM 60.6°F15.9°C 50.4°F10.2°C 69% 3.6 mph SE5.8 kmh SE 5.1 mph8.2 kmh 30.00 in1015.9 mb 0.00 in0.0 mm 0.00 in0.0 mm 0.00 in0.0 mm
03:42 AM 61.0°F16.1°C 50.7°F10.4°C 69% 3.1 mph ESE5.0 kmh ESE 6.3 mph10.1 kmh 30.00 in1015.9 mb 0.00 in0.0 mm 0.00 in0.0 mm 0.00 in0.0 mm
03:40 AM 61.2°F16.2°C 50.5°F10.3°C 68% 2.9 mph ESE4.7 kmh ESE 3.6 mph5.8 kmh 30.00 in1015.9 mb 0.00 in0.0 mm 0.00 in0.0 mm 0.00 in0.0 mm
03:37 AM 61.3°F16.3°C 50.7°F10.4°C 68% 3.1 mph SE5.0 kmh SE 4.3 mph6.9 kmh 30.00 in1015.9 mb 0.00 in0.0 mm 0.00 in0.0 mm 0.00 in0.0 mm
03:35 AM 61.3°F16.3°C 50.7°F10.4°C 68% 3.1 mph SE5.0 kmh SE 2.7 mph4.3 kmh 30.00 in1015.9 mb 0.00 in0.0 mm 0.00 in0.0 mm 0.00 in0.0 mm
03:33 AM 61.3°F16.3°C 51.1°F10.6°C 69% 3.8 mph ESE6.1 kmh ESE 5.1 mph8.2 kmh 30.00 in1015.9 mb 0.00 in0.0 mm 0.00 in0.0 mm 0.00 in0.0 mm
03:31 AM 61.3°F16.3°C 51.1°F10.6°C 69% 3.1 mph SE5.0 kmh SE 4.0 mph6.4 kmh 30.00 in1015.9 mb 0.00 in0.0 mm 0.00 in0.0 mm 0.00 in0.0 mm
03:28 AM 61.3°F16.3°C 51.1°F10.6°C 69% 3.1 mph SSE5.0 kmh SSE 4.7 mph7.6 kmh 30.01 in1016.3 mb 0.00 in0.0 mm 0.00 in0.0 mm 0.00 in0.0 mm
03:26 AM 61.3°F16.3°C 51.1°F10.6°C 69% 3.1 mph S5.0 kmh S 2.9 mph4.7 kmh 30.01 in1016.3 mb 0.00 in0.0 mm 0.00 in0.0 mm 0.00 in0.0 mm
03:24 AM 61.3°F16.3°C 51.1°F10.6°C 69% 4.0 mph SE6.4 kmh SE 5.8 mph9.3 kmh 30.01 in1016.3 mb 0.00 in0.0 mm 0.00 in0.0 mm 0.00 in0.0 mm
03:22 AM 61.3°F16.3°C 51.1°F10.6°C 69% 4.0 mph SE6.4 kmh SE 4.5 mph7.2 kmh 30.01 in1016.3 mb 0.00 in0.0 mm 0.00 in0.0 mm 0.00 in0.0 mm
03:19 AM 61.2°F16.2°C 50.9°F10.5°C 69% 4.0 mph SE6.4 kmh SE 6.5 mph10.5 kmh 30.00 in1015.9 mb 0.00 in0.0 mm 0.00 in0.0 mm 0.00 in0.0 mm
03:17 AM 61.0°F16.1°C 50.7°F10.4°C 69% 3.8 mph S6.1 kmh S 3.4 mph5.5 kmh 30.00 in1015.9 mb 0.00 in0.0 mm 0.00 in0.0 mm 0.00 in0.0 mm
03:15 AM 61.2°F16.2°C 50.9°F10.5°C 69% 4.7 mph SE7.6 kmh SE 5.1 mph8.2 kmh 30.00 in1015.9 mb 0.00 in0.0 mm 0.00 in0.0 mm 0.00 in0.0 mm
03:13 AM 61.2°F16.2°C 50.9°F10.5°C 69% 4.9 mph SE7.9 kmh SE 6.5 mph10.5 kmh 30.00 in1015.9 mb 0.00 in0.0 mm 0.00 in0.0 mm 0.00 in0.0 mm
03:11 AM 61.2°F16.2°C 50.9°F10.5°C 69% 4.7 mph SE7.6 kmh SE 6.7 mph10.8 kmh 30.01 in1016.3 mb 0.00 in0.0 mm 0.00 in0.0 mm 0.00 in0.0 mm
03:08 AM 61.3°F16.3°C 51.1°F10.6°C 69% 4.0 mph SE6.4 kmh SE 5.4 mph8.7 kmh 30.01 in1016.3 mb 0.00 in0.0 mm 0.00 in0.0 mm 0.00 in0.0 mm
03:06 AM 61.3°F16.3°C 51.1°F10.6°C 69% 4.0 mph ESE6.4 kmh ESE 6.0 mph9.7 kmh 30.01 in1016.3 mb 0.00 in0.0 mm 0.00 in0.0 mm 0.00 in0.0 mm
03:04 AM 61.2°F16.2°C 50.9°F10.5°C 69% 4.9 mph ESE7.9 kmh ESE 5.8 mph9.3 kmh 30.01 in1016.3 mb 0.00 in0.0 mm 0.00 in0.0 mm 0.00 in0.0 mm
03:02 AM 61.2°F16.2°C 50.9°F10.5°C 69% 4.5 mph ESE7.2 kmh ESE 5.4 mph8.7 kmh 30.00 in1015.9 mb 0.00 in0.0 mm 0.00 in0.0 mm 0.00 in0.0 mm
03:00 AM 61.3°F16.3°C 50.7°F10.4°C 68% 4.5 mph SE7.2 kmh SE 4.9 mph7.9 kmh 30.01 in1016.3 mb 0.00 in0.0 mm 0.00 in0.0 mm 0.00 in0.0 mm
02:58 AM 61.3°F16.3°C 50.7°F10.4°C 68% 4.7 mph ESE7.6 kmh ESE 4.7 mph7.6 kmh 30.01 in1016.3 mb 0.00 in0.0 mm 0.00 in0.0 mm 0.00 in0.0 mm
02:56 AM 61.3°F16.3°C 50.7°F10.4°C 68% 4.9 mph SE7.9 kmh SE 6.0 mph9.7 kmh 30.01 in1016.3 mb 0.00 in0.0 mm 0.00 in0.0 mm 0.00 in0.0 mm
02:53 AM 61.3°F16.3°C 50.7°F10.4°C 68% 4.7 mph SE7.6 kmh SE 7.2 mph11.6 kmh 30.00 in1015.9 mb 0.00 in0.0 mm 0.00 in0.0 mm 0.00 in0.0 mm
02:51 AM 61.3°F16.3°C 50.7°F10.4°C 68% 4.7 mph SE7.6 kmh SE 6.7 mph10.8 kmh 30.00 in1015.9 mb 0.00 in0.0 mm 0.00 in0.0 mm 0.00 in0.0 mm
02:49 AM 61.3°F16.3°C 50.7°F10.4°C 68% 4.9 mph SE7.9 kmh SE 5.8 mph9.3 kmh 30.00 in1015.9 mb 0.00 in0.0 mm 0.00 in0.0 mm 0.00 in0.0 mm
02:47 AM 61.5°F16.4°C 50.9°F10.5°C 68% 4.5 mph SE7.2 kmh SE 5.6 mph9.0 kmh 30.01 in1016.3 mb 0.00 in0.0 mm 0.00 in0.0 mm 0.00 in0.0 mm
02:45 AM 61.7°F16.5°C 51.4°F10.8°C 69% 4.3 mph ESE6.9 kmh ESE 5.1 mph8.2 kmh 30.00 in1015.9 mb 0.00 in0.0 mm 0.00 in0.0 mm 0.00 in0.0 mm
02:42 AM 61.7°F16.5°C 51.4°F10.8°C 69% 4.0 mph ESE6.4 kmh ESE 5.4 mph8.7 kmh 30.00 in1015.9 mb 0.00 in0.0 mm 0.00 in0.0 mm 0.00 in0.0 mm
02:40 AM 61.7°F16.5°C 51.8°F11.0°C 70% 4.3 mph SE6.9 kmh SE 4.7 mph7.6 kmh 30.00 in1015.9 mb 0.00 in0.0 mm 0.00 in0.0 mm 0.00 in0.0 mm
02:38 AM 61.7°F16.5°C 51.8°F11.0°C 70% 4.5 mph ESE7.2 kmh ESE 5.1 mph8.2 kmh 30.00 in1015.9 mb 0.00 in0.0 mm 0.00 in0.0 mm 0.00 in0.0 mm
02:36 AM 61.7°F16.5°C 51.8°F11.0°C 70% 4.7 mph ESE7.6 kmh ESE 6.0 mph9.7 kmh 30.00 in1015.9 mb 0.00 in0.0 mm 0.00 in0.0 mm 0.00 in0.0 mm
02:34 AM 61.7°F16.5°C 51.8°F11.0°C 70% 4.7 mph SE7.6 kmh SE 5.4 mph8.7 kmh 30.00 in1015.9 mb 0.00 in0.0 mm 0.00 in0.0 mm 0.00 in0.0 mm
02:31 AM 61.7°F16.5°C 52.2°F11.2°C 71% 5.1 mph ESE8.2 kmh ESE 6.7 mph10.8 kmh 30.01 in1016.3 mb 0.00 in0.0 mm 0.00 in0.0 mm 0.00 in0.0 mm
02:29 AM 61.7°F16.5°C 52.2°F11.2°C 71% 4.7 mph SE7.6 kmh SE 5.8 mph9.3 kmh 30.01 in1016.3 mb 0.00 in0.0 mm 0.00 in0.0 mm 0.00 in0.0 mm
02:27 AM 61.7°F16.5°C 52.2°F11.2°C 71% 4.7 mph SE7.6 kmh SE 6.3 mph10.1 kmh 30.01 in1016.3 mb 0.00 in0.0 mm 0.00 in0.0 mm 0.00 in0.0 mm
02:25 AM 61.5°F16.4°C 52.0°F11.1°C 71% 4.7 mph SE7.6 kmh SE 6.3 mph10.1 kmh 30.01 in1016.3 mb 0.00 in0.0 mm 0.00 in0.0 mm 0.00 in0.0 mm
02:23 AM 61.3°F16.3°C 51.8°F11.0°C 71% 4.5 mph SE7.2 kmh SE 5.4 mph8.7 kmh 30.01 in1016.3 mb 0.00 in0.0 mm 0.00 in0.0 mm 0.00 in0.0 mm
02:20 AM 61.0°F16.1°C 51.1°F10.6°C 70% 4.3 mph SE6.9 kmh SE 5.8 mph9.3 kmh 30.01 in1016.3 mb 0.00 in0.0 mm 0.00 in0.0 mm 0.00 in0.0 mm
02:18 AM 61.0°F16.1°C 51.1°F10.6°C 70% 3.1 mph SE5.0 kmh SE 5.4 mph8.7 kmh 30.01 in1016.3 mb 0.00 in0.0 mm 0.00 in0.0 mm 0.00 in0.0 mm
02:16 AM 61.0°F16.1°C 51.1°F10.6°C 70% 2.0 mph SE3.2 kmh SE 2.5 mph4.0 kmh 30.01 in1016.3 mb 0.00 in0.0 mm 0.00 in0.0 mm 0.00 in0.0 mm
02:14 AM 61.0°F16.1°C 51.1°F10.6°C 70% 2.7 mph SE4.3 kmh SE 4.9 mph7.9 kmh 30.00 in1015.9 mb 0.00 in0.0 mm 0.00 in0.0 mm 0.00 in0.0 mm
02:11 AM 61.0°F16.1°C 51.1°F10.6°C 70% 2.5 mph SSE4.0 kmh SSE 3.8 mph6.1 kmh 30.01 in1016.3 mb 0.00 in0.0 mm 0.00 in0.0 mm 0.00 in0.0 mm
02:09 AM 61.3°F16.3°C 51.4°F10.8°C 70% 1.6 mph SE2.6 kmh SE 2.9 mph4.7 kmh 30.01 in1016.3 mb 0.00 in0.0 mm 0.00 in0.0 mm 0.00 in0.0 mm
02:07 AM 61.3°F16.3°C 51.4°F10.8°C 70% 1.6 mph SSE2.6 kmh SSE 2.9 mph4.7 kmh 30.01 in1016.3 mb 0.00 in0.0 mm 0.00 in0.0 mm 0.00 in0.0 mm
02:05 AM 61.3°F16.3°C 51.4°F10.8°C 70% 1.1 mph SE1.8 kmh SE 3.1 mph5.0 kmh 30.01 in1016.3 mb 0.00 in0.0 mm 0.00 in0.0 mm 0.00 in0.0 mm
02:03 AM 61.3°F16.3°C 51.4°F10.8°C 70% 2.5 mph SE4.0 kmh SE -- 30.01 in1016.3 mb 0.00 in0.0 mm 0.00 in0.0 mm 0.00 in0.0 mm
01:59 AM 61.5°F16.4°C 52.0°F11.1°C 71% 2.0 mph SSE3.2 kmh SSE 3.1 mph5.0 kmh 30.01 in1016.3 mb 0.00 in0.0 mm 0.00 in0.0 mm 0.00 in0.0 mm
01:57 AM 61.3°F16.3°C 51.8°F11.0°C 71% 2.7 mph SE4.3 kmh SE 3.4 mph5.5 kmh 30.01 in1016.3 mb 0.00 in0.0 mm 0.00 in0.0 mm 0.00 in0.0 mm
01:54 AM 61.2°F16.2°C 51.6°F10.9°C 71% 3.1 mph SE5.0 kmh SE 5.1 mph8.2 kmh 30.01 in1016.3 mb 0.00 in0.0 mm 0.00 in0.0 mm 0.00 in0.0 mm
01:52 AM 61.2°F16.2°C 51.6°F10.9°C 71% 2.2 mph SSE3.5 kmh SSE 2.5 mph4.0 kmh 30.01 in1016.3 mb 0.00 in0.0 mm 0.00 in0.0 mm 0.00 in0.0 mm
01:50 AM 61.3°F16.3°C 51.8°F11.0°C 71% 3.6 mph SSW5.8 kmh SSW 3.4 mph5.5 kmh 30.01 in1016.3 mb 0.00 in0.0 mm 0.00 in0.0 mm 0.00 in0.0 mm
01:48 AM 61.3°F16.3°C 51.8°F11.0°C 71% 4.7 mph ESE7.6 kmh ESE 6.5 mph10.5 kmh 30.01 in1016.3 mb 0.00 in0.0 mm 0.00 in0.0 mm 0.00 in0.0 mm
01:45 AM 61.5°F16.4°C 52.0°F11.1°C 71% 4.7 mph ESE7.6 kmh ESE 5.8 mph9.3 kmh 30.01 in1016.3 mb 0.00 in0.0 mm 0.00 in0.0 mm 0.00 in0.0 mm
01:43 AM 61.5°F16.4°C 52.0°F11.1°C 71% 4.7 mph SE7.6 kmh SE 5.1 mph8.2 kmh 30.01 in1016.3 mb 0.00 in0.0 mm 0.00 in0.0 mm 0.00 in0.0 mm
01:41 AM 61.7°F16.5°C 51.8°F11.0°C 70% 4.9 mph SE7.9 kmh SE 6.5 mph10.5 kmh 30.01 in1016.3 mb 0.00 in0.0 mm 0.00 in0.0 mm 0.00 in0.0 mm
01:39 AM 61.7°F16.5°C 51.8°F11.0°C 70% 4.7 mph SE7.6 kmh SE 5.4 mph8.7 kmh 30.01 in1016.3 mb 0.00 in0.0 mm 0.00 in0.0 mm 0.00 in0.0 mm
01:37 AM 61.9°F16.6°C 51.6°F10.9°C 69% 4.3 mph SE6.9 kmh SE 4.9 mph7.9 kmh 30.01 in1016.3 mb 0.00 in0.0 mm 0.00 in0.0 mm 0.00 in0.0 mm
01:34 AM 61.9°F16.6°C 51.6°F10.9°C 69% 4.3 mph S6.9 kmh S 6.0 mph9.7 kmh 30.01 in1016.3 mb 0.00 in0.0 mm 0.00 in0.0 mm 0.00 in0.0 mm
01:32 AM 61.9°F16.6°C 51.3°F10.7°C 68% 4.0 mph SSE6.4 kmh SSE 4.0 mph6.4 kmh 30.01 in1016.3 mb 0.00 in0.0 mm 0.00 in0.0 mm 0.00 in0.0 mm
01:30 AM 62.1°F16.7°C 51.4°F10.8°C 68% 4.3 mph SE6.9 kmh SE 4.9 mph7.9 kmh 30.01 in1016.3 mb 0.00 in0.0 mm 0.00 in0.0 mm 0.00 in0.0 mm
01:28 AM 62.2°F16.8°C 51.1°F10.6°C 67% 4.0 mph SE6.4 kmh SE 5.4 mph8.7 kmh 30.01 in1016.3 mb 0.00 in0.0 mm 0.00 in0.0 mm 0.00 in0.0 mm
01:25 AM 62.2°F16.8°C 51.1°F10.6°C 67% 3.8 mph ESE6.1 kmh ESE 4.9 mph7.9 kmh 30.01 in1016.3 mb 0.00 in0.0 mm 0.00 in0.0 mm 0.00 in0.0 mm
01:23 AM 62.4°F16.9°C 51.3°F10.7°C 67% 3.6 mph ESE5.8 kmh ESE 4.7 mph7.6 kmh 30.01 in1016.3 mb 0.00 in0.0 mm 0.00 in0.0 mm 0.00 in0.0 mm
01:21 AM 62.4°F16.9°C 51.3°F10.7°C 67% 3.1 mph SE5.0 kmh SE 4.3 mph6.9 kmh 30.01 in1016.3 mb 0.00 in0.0 mm 0.00 in0.0 mm 0.00 in0.0 mm
01:19 AM 62.4°F16.9°C 51.3°F10.7°C 67% 2.9 mph SE4.7 kmh SE 4.3 mph6.9 kmh 30.01 in1016.3 mb 0.00 in0.0 mm 0.00 in0.0 mm 0.00 in0.0 mm
01:16 AM 62.4°F16.9°C 51.3°F10.7°C 67% 2.5 mph SE4.0 kmh SE 3.6 mph5.8 kmh 30.01 in1016.3 mb 0.00 in0.0 mm 0.00 in0.0 mm 0.00 in0.0 mm
01:14 AM 62.4°F16.9°C 51.8°F11.0°C 68% 1.8 mph SSE2.9 kmh SSE 1.8 mph2.9 kmh 30.01 in1016.3 mb 0.00 in0.0 mm 0.00 in0.0 mm 0.00 in0.0 mm
01:12 AM 62.2°F16.8°C 51.6°F10.9°C 68% 2.2 mph SSE3.5 kmh SSE 3.1 mph5.0 kmh 30.01 in1016.3 mb 0.00 in0.0 mm 0.00 in0.0 mm 0.00 in0.0 mm
01:10 AM 61.9°F16.6°C 51.3°F10.7°C 68% 2.0 mph ESE3.2 kmh ESE 2.9 mph4.7 kmh 30.01 in1016.3 mb 0.00 in0.0 mm 0.00 in0.0 mm 0.00 in0.0 mm
01:08 AM 61.7°F16.5°C 51.1°F10.6°C 68% 2.0 mph ESE3.2 kmh ESE 2.0 mph3.2 kmh 30.01 in1016.3 mb 0.00 in0.0 mm 0.00 in0.0 mm 0.00 in0.0 mm
01:05 AM 61.9°F16.6°C 51.3°F10.7°C 68% 2.0 mph SSE3.2 kmh SSE 3.1 mph5.0 kmh 30.01 in1016.3 mb 0.00 in0.0 mm 0.00 in0.0 mm 0.00 in0.0 mm
01:03 AM 61.9°F16.6°C 51.3°F10.7°C 68% 2.5 mph ESE4.0 kmh ESE 3.4 mph5.5 kmh 30.01 in1016.3 mb 0.00 in0.0 mm 0.00 in0.0 mm 0.00 in0.0 mm
01:01 AM 61.9°F16.6°C 51.3°F10.7°C 68% 2.7 mph SE4.3 kmh SE 5.4 mph8.7 kmh 30.01 in1016.3 mb 0.00 in0.0 mm 0.00 in0.0 mm 0.00 in0.0 mm
12:59 AM 61.9°F16.6°C 51.3°F10.7°C 68% 1.6 mph SE2.6 kmh SE 4.0 mph6.4 kmh 30.01 in1016.3 mb 0.00 in0.0 mm 0.00 in0.0 mm 0.00 in0.0 mm
12:57 AM 61.9°F16.6°C 51.3°F10.7°C 68% 0.7 mph SSE1.1 kmh SSE 1.3 mph2.1 kmh 30.01 in1016.3 mb 0.00 in0.0 mm 0.00 in0.0 mm 0.00 in0.0 mm
12:54 AM 61.9°F16.6°C 51.3°F10.7°C 68% 0.9 mph SSE1.4 kmh SSE 1.6 mph2.6 kmh 30.01 in1016.3 mb 0.00 in0.0 mm 0.00 in0.0 mm 0.00 in0.0 mm
12:52 AM 62.1°F16.7°C 51.4°F10.8°C 68% 1.3 mph SE2.1 kmh SE 1.3 mph2.1 kmh 30.01 in1016.3 mb 0.00 in0.0 mm 0.00 in0.0 mm 0.00 in0.0 mm
12:50 AM 62.1°F16.7°C 51.4°F10.8°C 68% 2.2 mph SE3.5 kmh SE 1.8 mph2.9 kmh 30.01 in1016.3 mb 0.00 in0.0 mm 0.00 in0.0 mm 0.00 in0.0 mm
12:48 AM 62.1°F16.7°C 51.4°F10.8°C 68% 3.4 mph ESE5.5 kmh ESE 4.0 mph6.4 kmh 30.01 in1016.3 mb 0.00 in0.0 mm 0.00 in0.0 mm 0.00 in0.0 mm
12:45 AM 62.1°F16.7°C 51.4°F10.8°C 68% 3.4 mph SSE5.5 kmh SSE 4.5 mph7.2 kmh 30.01 in1016.3 mb 0.00 in0.0 mm 0.00 in0.0 mm 0.00 in0.0 mm
12:43 AM 62.2°F16.8°C 51.6°F10.9°C 68% 4.0 mph SE6.4 kmh SE 4.0 mph6.4 kmh 30.01 in1016.3 mb 0.00 in0.0 mm 0.00 in0.0 mm 0.00 in0.0 mm
12:41 AM 62.2°F16.8°C 51.6°F10.9°C 68% 4.7 mph ESE7.6 kmh ESE 5.6 mph9.0 kmh 30.01 in1016.3 mb 0.00 in0.0 mm 0.00 in0.0 mm 0.00 in0.0 mm
12:39 AM 62.4°F16.9°C 51.8°F11.0°C 68% 4.5 mph SSE7.2 kmh SSE 7.2 mph11.6 kmh 30.01 in1016.3 mb 0.00 in0.0 mm 0.00 in0.0 mm 0.00 in0.0 mm
12:37 AM 62.4°F16.9°C 52.2°F11.2°C 69% 3.1 mph SE5.0 kmh SE 5.4 mph8.7 kmh 30.02 in1016.6 mb 0.00 in0.0 mm 0.00 in0.0 mm 0.00 in0.0 mm
12:35 AM 62.4°F16.9°C 52.2°F11.2°C 69% 2.7 mph ESE4.3 kmh ESE 4.0 mph6.4 kmh 30.02 in1016.6 mb 0.00 in0.0 mm 0.00 in0.0 mm 0.00 in0.0 mm
12:33 AM 62.4°F16.9°C 52.2°F11.2°C 69% 2.2 mph ESE3.5 kmh ESE 3.6 mph5.8 kmh 30.01 in1016.3 mb 0.00 in0.0 mm 0.00 in0.0 mm 0.00 in0.0 mm
12:31 AM 62.4°F16.9°C 52.2°F11.2°C 69% 2.0 mph ESE3.2 kmh ESE 2.5 mph4.0 kmh 30.01 in1016.3 mb 0.00 in0.0 mm 0.00 in0.0 mm 0.00 in0.0 mm
12:28 AM 62.4°F16.9°C 52.2°F11.2°C 69% 2.2 mph SSE3.5 kmh SSE 2.5 mph4.0 kmh 30.02 in1016.6 mb 0.00 in0.0 mm 0.00 in0.0 mm 0.00 in0.0 mm
12:26 AM 62.4°F16.9°C 52.2°F11.2°C 69% 2.2 mph SE3.5 kmh SE 2.0 mph3.2 kmh 30.01 in1016.3 mb 0.00 in0.0 mm 0.00 in0.0 mm 0.00 in0.0 mm
12:24 AM 62.4°F16.9°C 52.2°F11.2°C 69% 2.9 mph ESE4.7 kmh ESE 2.9 mph4.7 kmh 30.01 in1016.3 mb 0.00 in0.0 mm 0.00 in0.0 mm 0.00 in0.0 mm
12:22 AM 62.4°F16.9°C 52.5°F11.4°C 70% 3.1 mph SE5.0 kmh SE 3.8 mph6.1 kmh 30.01 in1016.3 mb 0.00 in0.0 mm 0.00 in0.0 mm 0.00 in0.0 mm
12:20 AM 62.4°F16.9°C 52.5°F11.4°C 70% 2.9 mph ESE4.7 kmh ESE 4.9 mph7.9 kmh 30.02 in1016.6 mb 0.00 in0.0 mm 0.00 in0.0 mm 0.00 in0.0 mm
12:18 AM 62.4°F16.9°C 52.5°F11.4°C 70% 3.4 mph ESE5.5 kmh ESE 4.3 mph6.9 kmh 30.02 in1016.6 mb 0.00 in0.0 mm 0.00 in0.0 mm 0.00 in0.0 mm
12:15 AM 62.4°F16.9°C 52.5°F11.4°C 70% 3.4 mph ESE5.5 kmh ESE 4.7 mph7.6 kmh 30.01 in1016.3 mb 0.00 in0.0 mm 0.00 in0.0 mm 0.00 in0.0 mm
12:13 AM 62.4°F16.9°C 52.5°F11.4°C 70% 3.4 mph SE5.5 kmh SE 3.6 mph5.8 kmh 30.02 in1016.6 mb 0.00 in0.0 mm 0.00 in0.0 mm 0.00 in0.0 mm
12:11 AM 62.4°F16.9°C 52.5°F11.4°C 70% 3.4 mph ESE5.5 kmh ESE 4.7 mph7.6 kmh 30.02 in1016.6 mb 0.00 in0.0 mm 0.00 in0.0 mm 0.00 in0.0 mm
12:09 AM 62.8°F17.1°C 52.9°F11.6°C 70% 3.8 mph ESE6.1 kmh ESE 4.0 mph6.4 kmh 30.02 in1016.6 mb 0.00 in0.0 mm 0.00 in0.0 mm 0.00 in0.0 mm
12:07 AM 63.0°F17.2°C 53.1°F11.7°C 70% 4.3 mph SE6.9 kmh SE 6.0 mph9.7 kmh 30.02 in1016.6 mb 0.00 in0.0 mm 0.00 in0.0 mm 0.00 in0.0 mm
12:04 AM 63.1°F17.3°C 53.2°F11.8°C 70% 3.6 mph SE5.8 kmh SE 5.8 mph9.3 kmh 30.01 in1016.3 mb 0.00 in0.0 mm 0.00 in0.0 mm 0.00 in0.0 mm
12:02 AM 63.3°F17.4°C 53.4°F11.9°C 70% 2.7 mph SSE4.3 kmh SSE 4.3 mph6.9 kmh 30.01 in1016.3 mb 0.00 in0.0 mm 0.00 in0.0 mm 0.00 in0.0 mm
12:00 AM 63.3°F17.4°C 53.8°F12.1°C 71% 2.5 mph SE4.0 kmh SE 3.8 mph6.1 kmh 30.01 in1016.3 mb 0.00 in0.0 mm 0.00 in0.0 mm 0.00 in0.0 mm